<?xml version="1.0" encoding="UTF-8" standalone="no" ?>
<gpx xmlns="http://www.topografix.com/GPX/1/1" xmlns:xsi="http://www.w3.org/2001/XMLSchema-instance" xsi:schemaLocation="http://www.topografix.com/GPX/1/1 http://www.topografix.com/GPX/1/1/gpx.xsd" version="1.1" creator="VisuGPX - https://www.visugpx.com">
  <metadata>
    <name>Les Joyeux Randonneurs à Douchapt</name>
    <desc><![CDATA[Comme toujours  possibilité  de raccourcir  à  6km]]></desc>
  </metadata>
  <trk>
    <name><![CDATA[Tracé 31 janv. 2017 14:00:57]]></name>
    <trkseg>
      <trkpt lat="45.24349" lon="0.443">
        <ele>111.00593508512</ele>
        <time>2017-01-31T13:00:57Z</time>
      </trkpt>
      <trkpt lat="45.24352" lon="0.44293">
        <ele>113.00591768769</ele>
        <time>2017-01-31T13:01:51Z</time>
      </trkpt>
      <trkpt lat="45.24356" lon="0.44282">
        <ele>111.00589213031</ele>
        <time>2017-01-31T13:01:58Z</time>
      </trkpt>
      <trkpt lat="45.24363" lon="0.44287">
        <ele>110.00582202291</ele>
        <time>2017-01-31T13:02:06Z</time>
      </trkpt>
      <trkpt lat="45.24372" lon="0.44292">
        <ele>111.00573840826</ele>
        <time>2017-01-31T13:02:11Z</time>
      </trkpt>
      <trkpt lat="45.24379" lon="0.44296">
        <ele>112.00566310839</ele>
        <time>2017-01-31T13:02:18Z</time>
      </trkpt>
      <trkpt lat="45.24383" lon="0.44307">
        <ele>111.00561619358</ele>
        <time>2017-01-31T13:02:30Z</time>
      </trkpt>
      <trkpt lat="45.2439" lon="0.44313">
        <ele>109.00554727915</ele>
        <time>2017-01-31T13:02:36Z</time>
      </trkpt>
      <trkpt lat="45.24395" lon="0.44323">
        <ele>108.00549483744</ele>
        <time>2017-01-31T13:02:47Z</time>
      </trkpt>
      <trkpt lat="45.24401" lon="0.4433">
        <ele>109.00543165878</ele>
        <time>2017-01-31T13:02:54Z</time>
      </trkpt>
      <trkpt lat="45.24409" lon="0.44334">
        <ele>108.00536038612</ele>
        <time>2017-01-31T13:03:00Z</time>
      </trkpt>
      <trkpt lat="45.24415" lon="0.4434">
        <ele>108.00529695919</ele>
        <time>2017-01-31T13:03:06Z</time>
      </trkpt>
      <trkpt lat="45.2442" lon="0.44351">
        <ele>107.00524048155</ele>
        <time>2017-01-31T13:03:11Z</time>
      </trkpt>
      <trkpt lat="45.24422" lon="0.44363">
        <ele>106.00521273163</ele>
        <time>2017-01-31T13:03:15Z</time>
      </trkpt>
      <trkpt lat="45.24422" lon="0.44375">
        <ele>106.00520023721</ele>
        <time>2017-01-31T13:03:20Z</time>
      </trkpt>
      <trkpt lat="45.24421" lon="0.44387">
        <ele>107.00520407035</ele>
        <time>2017-01-31T13:03:26Z</time>
      </trkpt>
      <trkpt lat="45.24419" lon="0.44399">
        <ele>106.00520441358</ele>
        <time>2017-01-31T13:03:42Z</time>
      </trkpt>
      <trkpt lat="45.24416" lon="0.44412">
        <ele>104.00521776124</ele>
        <time>2017-01-31T13:03:47Z</time>
      </trkpt>
      <trkpt lat="45.24413" lon="0.44422">
        <ele>102.0052384603</ele>
        <time>2017-01-31T13:03:52Z</time>
      </trkpt>
      <trkpt lat="45.24411" lon="0.44432">
        <ele>102.00524790335</ele>
        <time>2017-01-31T13:03:56Z</time>
      </trkpt>
      <trkpt lat="45.24408" lon="0.44453">
        <ele>109.00525381646</ele>
        <time>2017-01-31T13:04:01Z</time>
      </trkpt>
      <trkpt lat="45.24405" lon="0.44465">
        <ele>109.00527100976</ele>
        <time>2017-01-31T13:04:07Z</time>
      </trkpt>
      <trkpt lat="45.244" lon="0.44475">
        <ele>109.00530381175</ele>
        <time>2017-01-31T13:04:13Z</time>
      </trkpt>
      <trkpt lat="45.24399" lon="0.44485">
        <ele>109.00530364727</ele>
        <time>2017-01-31T13:04:20Z</time>
      </trkpt>
      <trkpt lat="45.24391" lon="0.44495">
        <ele>107.00536359356</ele>
        <time>2017-01-31T13:04:24Z</time>
      </trkpt>
      <trkpt lat="45.24386" lon="0.44503">
        <ele>103.00540298129</ele>
        <time>2017-01-31T13:04:32Z</time>
      </trkpt>
      <trkpt lat="45.24381" lon="0.44512">
        <ele>102.00543479725</ele>
        <time>2017-01-31T13:04:37Z</time>
      </trkpt>
      <trkpt lat="45.24376" lon="0.4452">
        <ele>101.00546976594</ele>
        <time>2017-01-31T13:04:42Z</time>
      </trkpt>
      <trkpt lat="45.2437" lon="0.44528">
        <ele>103.00551216996</ele>
        <time>2017-01-31T13:04:48Z</time>
      </trkpt>
      <trkpt lat="45.24365" lon="0.44536">
        <ele>103.00554993746</ele>
        <time>2017-01-31T13:04:53Z</time>
      </trkpt>
      <trkpt lat="45.24362" lon="0.44547">
        <ele>98.00556579267</ele>
        <time>2017-01-31T13:05:01Z</time>
      </trkpt>
      <trkpt lat="45.24362" lon="0.44559">
        <ele>100.0055547922</ele>
        <time>2017-01-31T13:05:08Z</time>
      </trkpt>
      <trkpt lat="45.2436" lon="0.44571">
        <ele>103.00556045602</ele>
        <time>2017-01-31T13:05:15Z</time>
      </trkpt>
      <trkpt lat="45.24356" lon="0.44582">
        <ele>105.00558258053</ele>
        <time>2017-01-31T13:05:21Z</time>
      </trkpt>
      <trkpt lat="45.24352" lon="0.44593">
        <ele>105.0056075209</ele>
        <time>2017-01-31T13:05:28Z</time>
      </trkpt>
      <trkpt lat="45.24348" lon="0.44603">
        <ele>104.00562709078</ele>
        <time>2017-01-31T13:05:35Z</time>
      </trkpt>
      <trkpt lat="45.24346" lon="0.44615">
        <ele>105.00563122493</ele>
        <time>2017-01-31T13:05:43Z</time>
      </trkpt>
      <trkpt lat="45.24346" lon="0.44628">
        <ele>106.00561945336</ele>
        <time>2017-01-31T13:05:52Z</time>
      </trkpt>
      <trkpt lat="45.24343" lon="0.44638">
        <ele>109.00563675865</ele>
        <time>2017-01-31T13:05:59Z</time>
      </trkpt>
      <trkpt lat="45.24336" lon="0.44644">
        <ele>105.00569092671</ele>
        <time>2017-01-31T13:06:04Z</time>
      </trkpt>
      <trkpt lat="45.24335" lon="0.44657">
        <ele>105.00568900437</ele>
        <time>2017-01-31T13:06:11Z</time>
      </trkpt>
      <trkpt lat="45.24329" lon="0.44665">
        <ele>103.00572690502</ele>
        <time>2017-01-31T13:06:20Z</time>
      </trkpt>
      <trkpt lat="45.24325" lon="0.44675">
        <ele>103.00575311145</ele>
        <time>2017-01-31T13:06:32Z</time>
      </trkpt>
      <trkpt lat="45.24322" lon="0.44687">
        <ele>105.0057636625</ele>
        <time>2017-01-31T13:06:36Z</time>
      </trkpt>
      <trkpt lat="45.24319" lon="0.44697">
        <ele>105.00578033856</ele>
        <time>2017-01-31T13:06:45Z</time>
      </trkpt>
      <trkpt lat="45.24314" lon="0.44707">
        <ele>105.00581044192</ele>
        <time>2017-01-31T13:06:52Z</time>
      </trkpt>
      <trkpt lat="45.2431" lon="0.44717">
        <ele>106.00583489511</ele>
        <time>2017-01-31T13:06:59Z</time>
      </trkpt>
      <trkpt lat="45.24308" lon="0.44728">
        <ele>108.00584129537</ele>
        <time>2017-01-31T13:07:06Z</time>
      </trkpt>
      <trkpt lat="45.24302" lon="0.44738">
        <ele>108.00587717758</ele>
        <time>2017-01-31T13:07:10Z</time>
      </trkpt>
      <trkpt lat="45.24301" lon="0.44747">
        <ele>107.00587727007</ele>
        <time>2017-01-31T13:07:16Z</time>
      </trkpt>
      <trkpt lat="45.24296" lon="0.44756">
        <ele>108.00591086657</ele>
        <time>2017-01-31T13:07:23Z</time>
      </trkpt>
      <trkpt lat="45.2429" lon="0.44766">
        <ele>108.00594367972</ele>
        <time>2017-01-31T13:07:28Z</time>
      </trkpt>
      <trkpt lat="45.2429" lon="0.44778">
        <ele>109.00593453859</ele>
        <time>2017-01-31T13:07:37Z</time>
      </trkpt>
      <trkpt lat="45.24288" lon="0.44789">
        <ele>110.00593954591</ele>
        <time>2017-01-31T13:07:44Z</time>
      </trkpt>
      <trkpt lat="45.24283" lon="0.448">
        <ele>109.00596744852</ele>
        <time>2017-01-31T13:07:52Z</time>
      </trkpt>
      <trkpt lat="45.24279" lon="0.44811">
        <ele>112.00598326702</ele>
        <time>2017-01-31T13:08:01Z</time>
      </trkpt>
      <trkpt lat="45.24276" lon="0.44821">
        <ele>110.00600327173</ele>
        <time>2017-01-31T13:08:10Z</time>
      </trkpt>
      <trkpt lat="45.24272" lon="0.44831">
        <ele>111.00602161603</ele>
        <time>2017-01-31T13:08:18Z</time>
      </trkpt>
      <trkpt lat="45.24265" lon="0.44839">
        <ele>107.00606781338</ele>
        <time>2017-01-31T13:08:25Z</time>
      </trkpt>
      <trkpt lat="45.24268" lon="0.44851">
        <ele>111.0060301535</ele>
        <time>2017-01-31T13:08:32Z</time>
      </trkpt>
      <trkpt lat="45.24264" lon="0.44862">
        <ele>112.00604825758</ele>
        <time>2017-01-31T13:08:43Z</time>
      </trkpt>
      <trkpt lat="45.24264" lon="0.44873">
        <ele>110.00603885197</ele>
        <time>2017-01-31T13:08:49Z</time>
      </trkpt>
      <trkpt lat="45.24263" lon="0.44885">
        <ele>108.00603440079</ele>
        <time>2017-01-31T13:08:56Z</time>
      </trkpt>
      <trkpt lat="45.24266" lon="0.44896">
        <ele>109.00599221064</ele>
        <time>2017-01-31T13:09:03Z</time>
      </trkpt>
      <trkpt lat="45.24267" lon="0.44907">
        <ele>107.00597130475</ele>
        <time>2017-01-31T13:09:11Z</time>
      </trkpt>
      <trkpt lat="45.24268" lon="0.44918">
        <ele>107.00595434091</ele>
        <time>2017-01-31T13:09:17Z</time>
      </trkpt>
      <trkpt lat="45.24268" lon="0.44931">
        <ele>107.0059355176</ele>
        <time>2017-01-31T13:09:25Z</time>
      </trkpt>
      <trkpt lat="45.24269" lon="0.44943">
        <ele>109.00591575121</ele>
        <time>2017-01-31T13:09:34Z</time>
      </trkpt>
      <trkpt lat="45.24271" lon="0.44956">
        <ele>108.00588690005</ele>
        <time>2017-01-31T13:09:44Z</time>
      </trkpt>
      <trkpt lat="45.24275" lon="0.44965">
        <ele>111.00584217226</ele>
        <time>2017-01-31T13:09:51Z</time>
      </trkpt>
      <trkpt lat="45.24276" lon="0.44975">
        <ele>109.00582006948</ele>
        <time>2017-01-31T13:09:58Z</time>
      </trkpt>
      <trkpt lat="45.2428" lon="0.44986">
        <ele>109.00577693365</ele>
        <time>2017-01-31T13:10:04Z</time>
      </trkpt>
      <trkpt lat="45.24284" lon="0.44997">
        <ele>109.00573366513</ele>
        <time>2017-01-31T13:10:11Z</time>
      </trkpt>
      <trkpt lat="45.24285" lon="0.45009">
        <ele>107.00571404002</ele>
        <time>2017-01-31T13:10:18Z</time>
      </trkpt>
      <trkpt lat="45.24288" lon="0.4502">
        <ele>108.00567585162</ele>
        <time>2017-01-31T13:10:27Z</time>
      </trkpt>
      <trkpt lat="45.2429" lon="0.45033">
        <ele>108.00564082957</ele>
        <time>2017-01-31T13:10:35Z</time>
      </trkpt>
      <trkpt lat="45.24294" lon="0.45044">
        <ele>105.00560209941</ele>
        <time>2017-01-31T13:10:42Z</time>
      </trkpt>
      <trkpt lat="45.24297" lon="0.45055">
        <ele>106.00556317469</ele>
        <time>2017-01-31T13:10:48Z</time>
      </trkpt>
      <trkpt lat="45.24299" lon="0.45066">
        <ele>109.00553360603</ele>
        <time>2017-01-31T13:10:54Z</time>
      </trkpt>
      <trkpt lat="45.24305" lon="0.45075">
        <ele>111.00547589461</ele>
        <time>2017-01-31T13:10:59Z</time>
      </trkpt>
      <trkpt lat="45.24307" lon="0.45087">
        <ele>109.00544815867</ele>
        <time>2017-01-31T13:11:09Z</time>
      </trkpt>
      <trkpt lat="45.24311" lon="0.45097">
        <ele>112.00540400695</ele>
        <time>2017-01-31T13:11:17Z</time>
      </trkpt>
      <trkpt lat="45.2431" lon="0.45108">
        <ele>110.00540417909</ele>
        <time>2017-01-31T13:11:25Z</time>
      </trkpt>
      <trkpt lat="45.2431" lon="0.45121">
        <ele>112.00538735228</ele>
        <time>2017-01-31T13:11:33Z</time>
      </trkpt>
      <trkpt lat="45.24309" lon="0.45133">
        <ele>107.00537903845</ele>
        <time>2017-01-31T13:11:40Z</time>
      </trkpt>
      <trkpt lat="45.24309" lon="0.45145">
        <ele>107.00536463944</ele>
        <time>2017-01-31T13:11:46Z</time>
      </trkpt>
      <trkpt lat="45.24309" lon="0.45158">
        <ele>107.00535033969</ele>
        <time>2017-01-31T13:11:53Z</time>
      </trkpt>
      <trkpt lat="45.24307" lon="0.45168">
        <ele>108.00535873487</ele>
        <time>2017-01-31T13:11:59Z</time>
      </trkpt>
      <trkpt lat="45.24303" lon="0.45177">
        <ele>107.00538048198</ele>
        <time>2017-01-31T13:12:06Z</time>
      </trkpt>
      <trkpt lat="45.24306" lon="0.45189">
        <ele>114.00534517035</ele>
        <time>2017-01-31T13:12:14Z</time>
      </trkpt>
      <trkpt lat="45.24301" lon="0.45199">
        <ele>114.00536828833</ele>
        <time>2017-01-31T13:12:19Z</time>
      </trkpt>
      <trkpt lat="45.24297" lon="0.45211">
        <ele>111.00538831741</ele>
        <time>2017-01-31T13:12:25Z</time>
      </trkpt>
      <trkpt lat="45.24297" lon="0.45223">
        <ele>109.00537341368</ele>
        <time>2017-01-31T13:12:35Z</time>
      </trkpt>
      <trkpt lat="45.24298" lon="0.45234">
        <ele>113.00535667756</ele>
        <time>2017-01-31T13:12:43Z</time>
      </trkpt>
      <trkpt lat="45.24293" lon="0.45244">
        <ele>110.00538227738</ele>
        <time>2017-01-31T13:12:51Z</time>
      </trkpt>
      <trkpt lat="45.24291" lon="0.45256">
        <ele>113.00538296946</ele>
        <time>2017-01-31T13:12:59Z</time>
      </trkpt>
      <trkpt lat="45.24291" lon="0.45267">
        <ele>114.00536872837</ele>
        <time>2017-01-31T13:13:06Z</time>
      </trkpt>
      <trkpt lat="45.24293" lon="0.45279">
        <ele>114.00533679479</ele>
        <time>2017-01-31T13:13:11Z</time>
      </trkpt>
      <trkpt lat="45.24289" lon="0.45288">
        <ele>110.0053579228</ele>
        <time>2017-01-31T13:13:16Z</time>
      </trkpt>
      <trkpt lat="45.24289" lon="0.45299">
        <ele>108.0053508321</ele>
        <time>2017-01-31T13:13:24Z</time>
      </trkpt>
      <trkpt lat="45.24287" lon="0.45311">
        <ele>104.00534763047</ele>
        <time>2017-01-31T13:13:37Z</time>
      </trkpt>
      <trkpt lat="45.2429" lon="0.45322">
        <ele>103.00531238883</ele>
        <time>2017-01-31T13:13:47Z</time>
      </trkpt>
      <trkpt lat="45.24287" lon="0.45333">
        <ele>101.0053281818</ele>
        <time>2017-01-31T13:13:56Z</time>
      </trkpt>
      <trkpt lat="45.2428" lon="0.4534">
        <ele>104.00536946133</ele>
        <time>2017-01-31T13:14:03Z</time>
      </trkpt>
      <trkpt lat="45.24272" lon="0.45344">
        <ele>106.00542038321</ele>
        <time>2017-01-31T13:14:09Z</time>
      </trkpt>
      <trkpt lat="45.24265" lon="0.4535">
        <ele>108.00547230035</ele>
        <time>2017-01-31T13:14:16Z</time>
      </trkpt>
      <trkpt lat="45.24257" lon="0.45353">
        <ele>108.0055216933</ele>
        <time>2017-01-31T13:14:22Z</time>
      </trkpt>
      <trkpt lat="45.24251" lon="0.4536">
        <ele>110.00555794885</ele>
        <time>2017-01-31T13:14:30Z</time>
      </trkpt>
      <trkpt lat="45.24243" lon="0.4536">
        <ele>110.00561704464</ele>
        <time>2017-01-31T13:14:41Z</time>
      </trkpt>
      <trkpt lat="45.24236" lon="0.4536">
        <ele>111.00567420686</ele>
        <time>2017-01-31T13:14:51Z</time>
      </trkpt>
      <trkpt lat="45.24227" lon="0.45359">
        <ele>111.00573906439</ele>
        <time>2017-01-31T13:15:01Z</time>
      </trkpt>
      <trkpt lat="45.24219" lon="0.45361">
        <ele>109.00580034853</ele>
        <time>2017-01-31T13:15:11Z</time>
      </trkpt>
      <trkpt lat="45.24211" lon="0.45357">
        <ele>109.00586073192</ele>
        <time>2017-01-31T13:15:18Z</time>
      </trkpt>
      <trkpt lat="45.24203" lon="0.45358">
        <ele>107.00591720563</ele>
        <time>2017-01-31T13:15:27Z</time>
      </trkpt>
      <trkpt lat="45.24196" lon="0.45356">
        <ele>109.00597548805</ele>
        <time>2017-01-31T13:15:36Z</time>
      </trkpt>
      <trkpt lat="45.24188" lon="0.45352">
        <ele>106.00604021481</ele>
        <time>2017-01-31T13:15:43Z</time>
      </trkpt>
      <trkpt lat="45.24179" lon="0.45353">
        <ele>111.00610432178</ele>
        <time>2017-01-31T13:15:51Z</time>
      </trkpt>
      <trkpt lat="45.24171" lon="0.45357">
        <ele>109.00615755913</ele>
        <time>2017-01-31T13:15:59Z</time>
      </trkpt>
      <trkpt lat="45.24162" lon="0.45355">
        <ele>110.00622484765</ele>
        <time>2017-01-31T13:16:10Z</time>
      </trkpt>
      <trkpt lat="45.24154" lon="0.45359">
        <ele>112.00628143742</ele>
        <time>2017-01-31T13:16:19Z</time>
      </trkpt>
      <trkpt lat="45.24147" lon="0.45358">
        <ele>109.00633449008</ele>
        <time>2017-01-31T13:16:28Z</time>
      </trkpt>
      <trkpt lat="45.24139" lon="0.45362">
        <ele>106.00638768956</ele>
        <time>2017-01-31T13:16:35Z</time>
      </trkpt>
      <trkpt lat="45.24131" lon="0.45366">
        <ele>106.00644130719</ele>
        <time>2017-01-31T13:16:43Z</time>
      </trkpt>
      <trkpt lat="45.24123" lon="0.45368">
        <ele>107.00650175164</ele>
        <time>2017-01-31T13:16:51Z</time>
      </trkpt>
      <trkpt lat="45.24115" lon="0.4537">
        <ele>108.00655690218</ele>
        <time>2017-01-31T13:16:58Z</time>
      </trkpt>
      <trkpt lat="45.24108" lon="0.45372">
        <ele>108.00660830976</ele>
        <time>2017-01-31T13:17:06Z</time>
      </trkpt>
      <trkpt lat="45.24099" lon="0.45373">
        <ele>113.00666992334</ele>
        <time>2017-01-31T13:17:14Z</time>
      </trkpt>
      <trkpt lat="45.24091" lon="0.45372">
        <ele>113.00673345232</ele>
        <time>2017-01-31T13:17:20Z</time>
      </trkpt>
      <trkpt lat="45.24083" lon="0.45373">
        <ele>112.00679313559</ele>
        <time>2017-01-31T13:17:28Z</time>
      </trkpt>
      <trkpt lat="45.24075" lon="0.45373">
        <ele>111.00685197402</ele>
        <time>2017-01-31T13:17:36Z</time>
      </trkpt>
      <trkpt lat="45.24066" lon="0.45375">
        <ele>107.00691073066</ele>
        <time>2017-01-31T13:17:45Z</time>
      </trkpt>
      <trkpt lat="45.24058" lon="0.45376">
        <ele>105.00697089809</ele>
        <time>2017-01-31T13:17:53Z</time>
      </trkpt>
      <trkpt lat="45.24049" lon="0.45376">
        <ele>103.00703336516</ele>
        <time>2017-01-31T13:18:03Z</time>
      </trkpt>
      <trkpt lat="45.24041" lon="0.45376">
        <ele>102.00709815639</ele>
        <time>2017-01-31T13:18:21Z</time>
      </trkpt>
      <trkpt lat="45.24033" lon="0.45378">
        <ele>99.007154481086</ele>
        <time>2017-01-31T13:18:27Z</time>
      </trkpt>
      <trkpt lat="45.24025" lon="0.45381">
        <ele>99.007208235709</ele>
        <time>2017-01-31T13:18:35Z</time>
      </trkpt>
      <trkpt lat="45.24017" lon="0.45379">
        <ele>97.007264582878</ele>
        <time>2017-01-31T13:18:42Z</time>
      </trkpt>
      <trkpt lat="45.24009" lon="0.45376">
        <ele>91.007329927691</ele>
        <time>2017-01-31T13:18:48Z</time>
      </trkpt>
      <trkpt lat="45.24001" lon="0.45375">
        <ele>89.007397311399</ele>
        <time>2017-01-31T13:18:56Z</time>
      </trkpt>
      <trkpt lat="45.23993" lon="0.45379">
        <ele>85.00744584071</ele>
        <time>2017-01-31T13:19:03Z</time>
      </trkpt>
      <trkpt lat="45.23986" lon="0.45382">
        <ele>86.007494490545</ele>
        <time>2017-01-31T13:19:09Z</time>
      </trkpt>
      <trkpt lat="45.23978" lon="0.45384">
        <ele>85.007548213133</ele>
        <time>2017-01-31T13:19:15Z</time>
      </trkpt>
      <trkpt lat="45.2397" lon="0.45387">
        <ele>84.007603167798</ele>
        <time>2017-01-31T13:19:21Z</time>
      </trkpt>
      <trkpt lat="45.23961" lon="0.45389">
        <ele>81.007662534497</ele>
        <time>2017-01-31T13:19:28Z</time>
      </trkpt>
      <trkpt lat="45.23953" lon="0.4539">
        <ele>82.007723247172</ele>
        <time>2017-01-31T13:19:36Z</time>
      </trkpt>
      <trkpt lat="45.23945" lon="0.45392">
        <ele>83.007782480564</ele>
        <time>2017-01-31T13:19:42Z</time>
      </trkpt>
      <trkpt lat="45.23936" lon="0.45391">
        <ele>83.007846124097</ele>
        <time>2017-01-31T13:19:50Z</time>
      </trkpt>
      <trkpt lat="45.23925" lon="0.45388">
        <ele>80.007935658749</ele>
        <time>2017-01-31T13:19:55Z</time>
      </trkpt>
      <trkpt lat="45.23916" lon="0.4539">
        <ele>81.007995383809</ele>
        <time>2017-01-31T13:20:06Z</time>
      </trkpt>
      <trkpt lat="45.23908" lon="0.45389">
        <ele>79.008060563842</ele>
        <time>2017-01-31T13:20:14Z</time>
      </trkpt>
      <trkpt lat="45.239" lon="0.45385">
        <ele>80.008122124284</ele>
        <time>2017-01-31T13:20:20Z</time>
      </trkpt>
      <trkpt lat="45.23891" lon="0.45382">
        <ele>80.008192142782</ele>
        <time>2017-01-31T13:20:30Z</time>
      </trkpt>
      <trkpt lat="45.23883" lon="0.45378">
        <ele>81.008258553808</ele>
        <time>2017-01-31T13:20:36Z</time>
      </trkpt>
      <trkpt lat="45.23875" lon="0.45376">
        <ele>85.00832670097</ele>
        <time>2017-01-31T13:20:43Z</time>
      </trkpt>
      <trkpt lat="45.23867" lon="0.45372">
        <ele>86.008391806509</ele>
        <time>2017-01-31T13:20:48Z</time>
      </trkpt>
      <trkpt lat="45.23858" lon="0.45371">
        <ele>87.008459764353</ele>
        <time>2017-01-31T13:20:56Z</time>
      </trkpt>
      <trkpt lat="45.2385" lon="0.45374">
        <ele>86.008514550944</ele>
        <time>2017-01-31T13:21:05Z</time>
      </trkpt>
      <trkpt lat="45.23841" lon="0.45373">
        <ele>86.008578308535</ele>
        <time>2017-01-31T13:21:13Z</time>
      </trkpt>
      <trkpt lat="45.23833" lon="0.45377">
        <ele>85.008633416299</ele>
        <time>2017-01-31T13:21:21Z</time>
      </trkpt>
      <trkpt lat="45.23825" lon="0.45374">
        <ele>85.008695578604</ele>
        <time>2017-01-31T13:21:28Z</time>
      </trkpt>
      <trkpt lat="45.2382" lon="0.45377">
        <ele>86.008727026504</ele>
        <time>2017-01-31T13:21:33Z</time>
      </trkpt>
      <trkpt lat="45.23815" lon="0.45386">
        <ele>90.008750084961</ele>
        <time>2017-01-31T13:21:38Z</time>
      </trkpt>
      <trkpt lat="45.23807" lon="0.45391">
        <ele>90.008798340288</ele>
        <time>2017-01-31T13:21:44Z</time>
      </trkpt>
      <trkpt lat="45.23799" lon="0.45393">
        <ele>92.008855630615</ele>
        <time>2017-01-31T13:21:51Z</time>
      </trkpt>
      <trkpt lat="45.2379" lon="0.45392">
        <ele>91.008918956993</ele>
        <time>2017-01-31T13:21:59Z</time>
      </trkpt>
      <trkpt lat="45.23782" lon="0.45393">
        <ele>89.008977355197</ele>
        <time>2017-01-31T13:22:08Z</time>
      </trkpt>
      <trkpt lat="45.23776" lon="0.45386">
        <ele>87.009038085228</ele>
        <time>2017-01-31T13:22:13Z</time>
      </trkpt>
      <trkpt lat="45.23769" lon="0.4539">
        <ele>87.009083193131</ele>
        <time>2017-01-31T13:22:19Z</time>
      </trkpt>
      <trkpt lat="45.2376" lon="0.4539">
        <ele>89.009145585516</ele>
        <time>2017-01-31T13:22:27Z</time>
      </trkpt>
      <trkpt lat="45.23752" lon="0.45391">
        <ele>87.009202893848</ele>
        <time>2017-01-31T13:22:35Z</time>
      </trkpt>
      <trkpt lat="45.23743" lon="0.45393">
        <ele>89.009262854926</ele>
        <time>2017-01-31T13:22:44Z</time>
      </trkpt>
      <trkpt lat="45.23736" lon="0.45397">
        <ele>89.009309033344</ele>
        <time>2017-01-31T13:22:51Z</time>
      </trkpt>
      <trkpt lat="45.23729" lon="0.45403">
        <ele>89.009350288866</ele>
        <time>2017-01-31T13:22:58Z</time>
      </trkpt>
      <trkpt lat="45.23721" lon="0.45408">
        <ele>90.00939575635</ele>
        <time>2017-01-31T13:23:06Z</time>
      </trkpt>
      <trkpt lat="45.23714" lon="0.45414">
        <ele>91.00943504613</ele>
        <time>2017-01-31T13:23:14Z</time>
      </trkpt>
      <trkpt lat="45.23708" lon="0.45421">
        <ele>90.00947005733</ele>
        <time>2017-01-31T13:23:22Z</time>
      </trkpt>
      <trkpt lat="45.237" lon="0.45421">
        <ele>88.009522411677</ele>
        <time>2017-01-31T13:23:29Z</time>
      </trkpt>
      <trkpt lat="45.23695" lon="0.4543">
        <ele>90.0095439381</ele>
        <time>2017-01-31T13:23:34Z</time>
      </trkpt>
      <trkpt lat="45.23688" lon="0.45423">
        <ele>88.009611979188</ele>
        <time>2017-01-31T13:24:03Z</time>
      </trkpt>
      <trkpt lat="45.23685" lon="0.45434">
        <ele>87.009604961453</ele>
        <time>2017-01-31T13:25:57Z</time>
      </trkpt>
      <trkpt lat="45.23685" lon="0.45447">
        <ele>84.009580079953</ele>
        <time>2017-01-31T13:26:06Z</time>
      </trkpt>
      <trkpt lat="45.23687" lon="0.45459">
        <ele>85.009539140207</ele>
        <time>2017-01-31T13:26:14Z</time>
      </trkpt>
      <trkpt lat="45.23686" lon="0.45471">
        <ele>86.009521770519</ele>
        <time>2017-01-31T13:26:23Z</time>
      </trkpt>
      <trkpt lat="45.23684" lon="0.45483">
        <ele>84.009514104253</ele>
        <time>2017-01-31T13:26:31Z</time>
      </trkpt>
      <trkpt lat="45.23682" lon="0.45494">
        <ele>85.009505233926</ele>
        <time>2017-01-31T13:26:39Z</time>
      </trkpt>
      <trkpt lat="45.23676" lon="0.45502">
        <ele>84.009526847286</ele>
        <time>2017-01-31T13:26:47Z</time>
      </trkpt>
      <trkpt lat="45.2367" lon="0.45509">
        <ele>84.009556126477</ele>
        <time>2017-01-31T13:26:53Z</time>
      </trkpt>
      <trkpt lat="45.2367" lon="0.45521">
        <ele>85.00952872355</ele>
        <time>2017-01-31T13:27:03Z</time>
      </trkpt>
      <trkpt lat="45.23666" lon="0.45532">
        <ele>84.009537906283</ele>
        <time>2017-01-31T13:27:10Z</time>
      </trkpt>
      <trkpt lat="45.23665" lon="0.45544">
        <ele>84.00951859347</ele>
        <time>2017-01-31T13:27:19Z</time>
      </trkpt>
      <trkpt lat="45.23663" lon="0.45555">
        <ele>85.009505712022</ele>
        <time>2017-01-31T13:27:26Z</time>
      </trkpt>
      <trkpt lat="45.23662" lon="0.45568">
        <ele>87.009491637055</ele>
        <time>2017-01-31T13:27:34Z</time>
      </trkpt>
      <trkpt lat="45.23658" lon="0.45578">
        <ele>86.009495266983</ele>
        <time>2017-01-31T13:27:40Z</time>
      </trkpt>
      <trkpt lat="45.23656" lon="0.45589">
        <ele>87.009486036738</ele>
        <time>2017-01-31T13:27:48Z</time>
      </trkpt>
      <trkpt lat="45.2365" lon="0.45599">
        <ele>86.009503314858</ele>
        <time>2017-01-31T13:28:00Z</time>
      </trkpt>
      <trkpt lat="45.23644" lon="0.45607">
        <ele>87.009529804008</ele>
        <time>2017-01-31T13:28:09Z</time>
      </trkpt>
      <trkpt lat="45.23636" lon="0.45606">
        <ele>82.009587104545</ele>
        <time>2017-01-31T13:28:15Z</time>
      </trkpt>
      <trkpt lat="45.23628" lon="0.45604">
        <ele>82.009654301012</ele>
        <time>2017-01-31T13:28:22Z</time>
      </trkpt>
      <trkpt lat="45.2362" lon="0.45601">
        <ele>81.009715232666</ele>
        <time>2017-01-31T13:28:29Z</time>
      </trkpt>
      <trkpt lat="45.23612" lon="0.45598">
        <ele>83.009779778035</ele>
        <time>2017-01-31T13:28:36Z</time>
      </trkpt>
      <trkpt lat="45.23604" lon="0.45601">
        <ele>80.009826947666</ele>
        <time>2017-01-31T13:28:43Z</time>
      </trkpt>
      <trkpt lat="45.23595" lon="0.45601">
        <ele>81.009886510684</ele>
        <time>2017-01-31T13:28:51Z</time>
      </trkpt>
      <trkpt lat="45.23587" lon="0.45596">
        <ele>83.009955365003</ele>
        <time>2017-01-31T13:29:01Z</time>
      </trkpt>
      <trkpt lat="45.23579" lon="0.45595">
        <ele>83.010015226154</ele>
        <time>2017-01-31T13:29:13Z</time>
      </trkpt>
      <trkpt lat="45.23573" lon="0.45602">
        <ele>86.010045652235</ele>
        <time>2017-01-31T13:29:18Z</time>
      </trkpt>
      <trkpt lat="45.23565" lon="0.45603">
        <ele>89.010098219649</ele>
        <time>2017-01-31T13:29:25Z</time>
      </trkpt>
      <trkpt lat="45.23557" lon="0.45603">
        <ele>89.010153186</ele>
        <time>2017-01-31T13:29:31Z</time>
      </trkpt>
      <trkpt lat="45.23548" lon="0.45602">
        <ele>89.010215233344</ele>
        <time>2017-01-31T13:29:38Z</time>
      </trkpt>
      <trkpt lat="45.2354" lon="0.45603">
        <ele>88.010269563978</ele>
        <time>2017-01-31T13:29:44Z</time>
      </trkpt>
      <trkpt lat="45.23532" lon="0.45605">
        <ele>88.010324025965</ele>
        <time>2017-01-31T13:29:51Z</time>
      </trkpt>
      <trkpt lat="45.23524" lon="0.45609">
        <ele>90.010372753229</ele>
        <time>2017-01-31T13:29:58Z</time>
      </trkpt>
      <trkpt lat="45.23516" lon="0.45613">
        <ele>91.010419143271</ele>
        <time>2017-01-31T13:30:05Z</time>
      </trkpt>
      <trkpt lat="45.23508" lon="0.45612">
        <ele>91.010476280016</ele>
        <time>2017-01-31T13:30:13Z</time>
      </trkpt>
      <trkpt lat="45.23499" lon="0.45615">
        <ele>90.010529546271</ele>
        <time>2017-01-31T13:30:22Z</time>
      </trkpt>
      <trkpt lat="45.23493" lon="0.45618">
        <ele>90.010569695867</ele>
        <time>2017-01-31T13:30:27Z</time>
      </trkpt>
      <trkpt lat="45.23484" lon="0.45623">
        <ele>90.010615339444</ele>
        <time>2017-01-31T13:30:34Z</time>
      </trkpt>
      <trkpt lat="45.23476" lon="0.45628">
        <ele>88.010658239348</ele>
        <time>2017-01-31T13:30:40Z</time>
      </trkpt>
      <trkpt lat="45.23468" lon="0.4563">
        <ele>88.010712814804</ele>
        <time>2017-01-31T13:30:47Z</time>
      </trkpt>
      <trkpt lat="45.2346" lon="0.45635">
        <ele>89.010754904681</ele>
        <time>2017-01-31T13:30:55Z</time>
      </trkpt>
      <trkpt lat="45.23453" lon="0.45638">
        <ele>87.010800601401</ele>
        <time>2017-01-31T13:31:02Z</time>
      </trkpt>
      <trkpt lat="45.23446" lon="0.45644">
        <ele>87.010832243772</ele>
        <time>2017-01-31T13:31:08Z</time>
      </trkpt>
      <trkpt lat="45.2344" lon="0.45653">
        <ele>88.010848332869</ele>
        <time>2017-01-31T13:31:17Z</time>
      </trkpt>
      <trkpt lat="45.23434" lon="0.45661">
        <ele>89.010870922281</ele>
        <time>2017-01-31T13:31:23Z</time>
      </trkpt>
      <trkpt lat="45.23426" lon="0.45663">
        <ele>86.010924059453</ele>
        <time>2017-01-31T13:31:29Z</time>
      </trkpt>
      <trkpt lat="45.23422" lon="0.45672">
        <ele>86.010931022435</ele>
        <time>2017-01-31T13:31:36Z</time>
      </trkpt>
      <trkpt lat="45.23419" lon="0.45683">
        <ele>89.010919788674</ele>
        <time>2017-01-31T13:31:42Z</time>
      </trkpt>
      <trkpt lat="45.23416" lon="0.45693">
        <ele>91.010915637696</ele>
        <time>2017-01-31T13:31:47Z</time>
      </trkpt>
      <trkpt lat="45.23411" lon="0.45704">
        <ele>91.010924699957</ele>
        <time>2017-01-31T13:31:55Z</time>
      </trkpt>
      <trkpt lat="45.23408" lon="0.45715">
        <ele>93.010913048756</ele>
        <time>2017-01-31T13:32:04Z</time>
      </trkpt>
      <trkpt lat="45.23403" lon="0.45725">
        <ele>92.010922044262</ele>
        <time>2017-01-31T13:32:12Z</time>
      </trkpt>
      <trkpt lat="45.23396" lon="0.45733">
        <ele>91.010951202869</ele>
        <time>2017-01-31T13:32:21Z</time>
      </trkpt>
      <trkpt lat="45.23391" lon="0.45741">
        <ele>93.01096553259</ele>
        <time>2017-01-31T13:32:30Z</time>
      </trkpt>
      <trkpt lat="45.23388" lon="0.45752">
        <ele>97.010958733372</ele>
        <time>2017-01-31T13:32:38Z</time>
      </trkpt>
      <trkpt lat="45.23385" lon="0.45763">
        <ele>97.010953165852</ele>
        <time>2017-01-31T13:32:54Z</time>
      </trkpt>
      <trkpt lat="45.23382" lon="0.45775">
        <ele>94.010936383951</ele>
        <time>2017-01-31T13:33:02Z</time>
      </trkpt>
      <trkpt lat="45.23377" lon="0.45785">
        <ele>94.01094289777</ele>
        <time>2017-01-31T13:33:11Z</time>
      </trkpt>
      <trkpt lat="45.23369" lon="0.45781">
        <ele>92.011010483038</ele>
        <time>2017-01-31T13:33:53Z</time>
      </trkpt>
      <trkpt lat="45.23377" lon="0.45777">
        <ele>91.010969544814</ele>
        <time>2017-01-31T13:34:08Z</time>
      </trkpt>
      <trkpt lat="45.23383" lon="0.45769">
        <ele>96.010947696564</ele>
        <time>2017-01-31T13:34:23Z</time>
      </trkpt>
      <trkpt lat="45.23389" lon="0.45764">
        <ele>96.01091766618</ele>
        <time>2017-01-31T13:34:52Z</time>
      </trkpt>
      <trkpt lat="45.23396" lon="0.45757">
        <ele>97.010888642177</ele>
        <time>2017-01-31T13:35:01Z</time>
      </trkpt>
      <trkpt lat="45.23407" lon="0.45762">
        <ele>95.010800693976</ele>
        <time>2017-01-31T13:35:05Z</time>
      </trkpt>
      <trkpt lat="45.23416" lon="0.4576">
        <ele>96.010746891333</ele>
        <time>2017-01-31T13:35:17Z</time>
      </trkpt>
      <trkpt lat="45.23425" lon="0.45758">
        <ele>95.010693328657</ele>
        <time>2017-01-31T13:35:27Z</time>
      </trkpt>
      <trkpt lat="45.23433" lon="0.45758">
        <ele>95.0106366189</ele>
        <time>2017-01-31T13:35:38Z</time>
      </trkpt>
      <trkpt lat="45.2344" lon="0.45751">
        <ele>98.010603919112</ele>
        <time>2017-01-31T13:35:45Z</time>
      </trkpt>
      <trkpt lat="45.23448" lon="0.45748">
        <ele>101.0105607983</ele>
        <time>2017-01-31T13:35:50Z</time>
      </trkpt>
      <trkpt lat="45.23455" lon="0.45743">
        <ele>101.0105200929</ele>
        <time>2017-01-31T13:35:58Z</time>
      </trkpt>
      <trkpt lat="45.23464" lon="0.45741">
        <ele>102.01047074915</ele>
        <time>2017-01-31T13:36:05Z</time>
      </trkpt>
      <trkpt lat="45.23472" lon="0.45735">
        <ele>102.01043046499</ele>
        <time>2017-01-31T13:36:13Z</time>
      </trkpt>
      <trkpt lat="45.23479" lon="0.45733">
        <ele>100.01038197488</ele>
        <time>2017-01-31T13:36:22Z</time>
      </trkpt>
      <trkpt lat="45.23487" lon="0.45729">
        <ele>100.0103388713</ele>
        <time>2017-01-31T13:36:29Z</time>
      </trkpt>
      <trkpt lat="45.23496" lon="0.45729">
        <ele>101.01027696201</ele>
        <time>2017-01-31T13:36:45Z</time>
      </trkpt>
      <trkpt lat="45.23503" lon="0.45729">
        <ele>102.0102287501</ele>
        <time>2017-01-31T13:36:54Z</time>
      </trkpt>
      <trkpt lat="45.23515" lon="0.4573">
        <ele>104.01014359917</ele>
        <time>2017-01-31T13:36:59Z</time>
      </trkpt>
      <trkpt lat="45.23523" lon="0.45735">
        <ele>105.01007834696</ele>
        <time>2017-01-31T13:37:05Z</time>
      </trkpt>
      <trkpt lat="45.23527" lon="0.45746">
        <ele>108.01002748161</ele>
        <time>2017-01-31T13:37:11Z</time>
      </trkpt>
      <trkpt lat="45.23522" lon="0.45756">
        <ele>109.01003563598</ele>
        <time>2017-01-31T13:37:19Z</time>
      </trkpt>
      <trkpt lat="45.23518" lon="0.45766">
        <ele>111.01003673669</ele>
        <time>2017-01-31T13:37:29Z</time>
      </trkpt>
      <trkpt lat="45.23517" lon="0.45778">
        <ele>115.01001951034</ele>
        <time>2017-01-31T13:37:35Z</time>
      </trkpt>
      <trkpt lat="45.23515" lon="0.4579">
        <ele>114.0100048875</ele>
        <time>2017-01-31T13:37:49Z</time>
      </trkpt>
      <trkpt lat="45.23515" lon="0.45802">
        <ele>118.00997729839</ele>
        <time>2017-01-31T13:38:00Z</time>
      </trkpt>
      <trkpt lat="45.23513" lon="0.45814">
        <ele>122.00995935634</ele>
        <time>2017-01-31T13:38:09Z</time>
      </trkpt>
      <trkpt lat="45.23508" lon="0.4582">
        <ele>121.00997984715</ele>
        <time>2017-01-31T13:38:14Z</time>
      </trkpt>
      <trkpt lat="45.23501" lon="0.45827">
        <ele>119.0100090113</ele>
        <time>2017-01-31T13:38:19Z</time>
      </trkpt>
      <trkpt lat="45.23502" lon="0.45839">
        <ele>119.00997718493</ele>
        <time>2017-01-31T13:38:28Z</time>
      </trkpt>
      <trkpt lat="45.235" lon="0.4585">
        <ele>121.00995698393</ele>
        <time>2017-01-31T13:38:37Z</time>
      </trkpt>
      <trkpt lat="45.23496" lon="0.45861">
        <ele>122.00996087466</ele>
        <time>2017-01-31T13:38:50Z</time>
      </trkpt>
      <trkpt lat="45.23489" lon="0.45867">
        <ele>122.0099925159</ele>
        <time>2017-01-31T13:38:56Z</time>
      </trkpt>
      <trkpt lat="45.23481" lon="0.45872">
        <ele>121.0100310848</ele>
        <time>2017-01-31T13:39:02Z</time>
      </trkpt>
      <trkpt lat="45.23475" lon="0.45876">
        <ele>124.01006204422</ele>
        <time>2017-01-31T13:39:09Z</time>
      </trkpt>
      <trkpt lat="45.23467" lon="0.45879">
        <ele>122.01011005393</ele>
        <time>2017-01-31T13:39:16Z</time>
      </trkpt>
      <trkpt lat="45.2346" lon="0.45888">
        <ele>120.01013401818</ele>
        <time>2017-01-31T13:39:57Z</time>
      </trkpt>
      <trkpt lat="45.23455" lon="0.45895">
        <ele>121.01015074932</ele>
        <time>2017-01-31T13:40:02Z</time>
      </trkpt>
      <trkpt lat="45.23449" lon="0.45901">
        <ele>122.01016883178</ele>
        <time>2017-01-31T13:40:06Z</time>
      </trkpt>
      <trkpt lat="45.23442" lon="0.45907">
        <ele>122.01020288793</ele>
        <time>2017-01-31T13:40:15Z</time>
      </trkpt>
      <trkpt lat="45.23436" lon="0.45917">
        <ele>124.01021998878</ele>
        <time>2017-01-31T13:40:20Z</time>
      </trkpt>
      <trkpt lat="45.23429" lon="0.45923">
        <ele>125.0102472789</ele>
        <time>2017-01-31T13:40:24Z</time>
      </trkpt>
      <trkpt lat="45.23425" lon="0.45931">
        <ele>127.01025504056</ele>
        <time>2017-01-31T13:40:29Z</time>
      </trkpt>
      <trkpt lat="45.23418" lon="0.45939">
        <ele>132.01027697872</ele>
        <time>2017-01-31T13:40:45Z</time>
      </trkpt>
      <trkpt lat="45.23411" lon="0.45944">
        <ele>131.01031505124</ele>
        <time>2017-01-31T13:40:52Z</time>
      </trkpt>
      <trkpt lat="45.23404" lon="0.45952">
        <ele>132.01034044588</ele>
        <time>2017-01-31T13:41:05Z</time>
      </trkpt>
      <trkpt lat="45.23398" lon="0.45957">
        <ele>131.0103661558</ele>
        <time>2017-01-31T13:41:11Z</time>
      </trkpt>
      <trkpt lat="45.23391" lon="0.45965">
        <ele>131.01038989395</ele>
        <time>2017-01-31T13:41:22Z</time>
      </trkpt>
      <trkpt lat="45.23383" lon="0.45971">
        <ele>132.0104234419</ele>
        <time>2017-01-31T13:41:30Z</time>
      </trkpt>
      <trkpt lat="45.23376" lon="0.45978">
        <ele>129.01045401884</ele>
        <time>2017-01-31T13:41:38Z</time>
      </trkpt>
      <trkpt lat="45.23369" lon="0.45983">
        <ele>127.0104846915</ele>
        <time>2017-01-31T13:41:44Z</time>
      </trkpt>
      <trkpt lat="45.23362" lon="0.4599">
        <ele>129.01051135509</ele>
        <time>2017-01-31T13:41:51Z</time>
      </trkpt>
      <trkpt lat="45.23355" lon="0.45996">
        <ele>129.01053847744</ele>
        <time>2017-01-31T13:41:58Z</time>
      </trkpt>
      <trkpt lat="45.23349" lon="0.46003">
        <ele>131.01055817954</ele>
        <time>2017-01-31T13:42:06Z</time>
      </trkpt>
      <trkpt lat="45.23343" lon="0.46012">
        <ele>132.01057077797</ele>
        <time>2017-01-31T13:42:15Z</time>
      </trkpt>
      <trkpt lat="45.23338" lon="0.46021">
        <ele>134.01058172804</ele>
        <time>2017-01-31T13:42:22Z</time>
      </trkpt>
      <trkpt lat="45.23331" lon="0.46028">
        <ele>135.0106092591</ele>
        <time>2017-01-31T13:42:32Z</time>
      </trkpt>
      <trkpt lat="45.23323" lon="0.46034">
        <ele>134.01064125774</ele>
        <time>2017-01-31T13:42:41Z</time>
      </trkpt>
      <trkpt lat="45.23318" lon="0.46041">
        <ele>134.01065257662</ele>
        <time>2017-01-31T13:42:57Z</time>
      </trkpt>
      <trkpt lat="45.23306" lon="0.46046">
        <ele>132.01071393408</ele>
        <time>2017-01-31T13:43:02Z</time>
      </trkpt>
      <trkpt lat="45.233" lon="0.46055">
        <ele>133.01072889263</ele>
        <time>2017-01-31T13:43:09Z</time>
      </trkpt>
      <trkpt lat="45.23295" lon="0.46064">
        <ele>134.0107377755</ele>
        <time>2017-01-31T13:43:15Z</time>
      </trkpt>
      <trkpt lat="45.23288" lon="0.4607">
        <ele>132.01076720645</ele>
        <time>2017-01-31T13:43:25Z</time>
      </trkpt>
      <trkpt lat="45.23284" lon="0.46082">
        <ele>135.01075770811</ele>
        <time>2017-01-31T13:43:34Z</time>
      </trkpt>
      <trkpt lat="45.23279" lon="0.4609">
        <ele>135.01076658602</ele>
        <time>2017-01-31T13:43:45Z</time>
      </trkpt>
      <trkpt lat="45.23276" lon="0.461">
        <ele>136.01075909607</ele>
        <time>2017-01-31T13:43:50Z</time>
      </trkpt>
      <trkpt lat="45.23277" lon="0.46112">
        <ele>139.01071832954</ele>
        <time>2017-01-31T13:43:59Z</time>
      </trkpt>
      <trkpt lat="45.23278" lon="0.46123">
        <ele>140.01067974123</ele>
        <time>2017-01-31T13:44:10Z</time>
      </trkpt>
      <trkpt lat="45.23281" lon="0.46134">
        <ele>144.01063504079</ele>
        <time>2017-01-31T13:44:16Z</time>
      </trkpt>
      <trkpt lat="45.23287" lon="0.46141">
        <ele>145.01057816963</ele>
        <time>2017-01-31T13:44:22Z</time>
      </trkpt>
      <trkpt lat="45.23293" lon="0.46149">
        <ele>145.01051655725</ele>
        <time>2017-01-31T13:44:34Z</time>
      </trkpt>
      <trkpt lat="45.23299" lon="0.46159">
        <ele>145.0104565136</ele>
        <time>2017-01-31T13:44:45Z</time>
      </trkpt>
      <trkpt lat="45.23304" lon="0.46169">
        <ele>144.01039787183</ele>
        <time>2017-01-31T13:44:52Z</time>
      </trkpt>
      <trkpt lat="45.23307" lon="0.46179">
        <ele>142.01034664297</ele>
        <time>2017-01-31T13:45:01Z</time>
      </trkpt>
      <trkpt lat="45.23311" lon="0.4619">
        <ele>143.01029754539</ele>
        <time>2017-01-31T13:45:07Z</time>
      </trkpt>
      <trkpt lat="45.23317" lon="0.46199">
        <ele>139.01023677789</ele>
        <time>2017-01-31T13:45:14Z</time>
      </trkpt>
      <trkpt lat="45.2332" lon="0.4621">
        <ele>135.01018914638</ele>
        <time>2017-01-31T13:45:25Z</time>
      </trkpt>
      <trkpt lat="45.23325" lon="0.4622">
        <ele>138.01013208451</ele>
        <time>2017-01-31T13:45:31Z</time>
      </trkpt>
      <trkpt lat="45.23331" lon="0.46228">
        <ele>141.01007222638</ele>
        <time>2017-01-31T13:45:38Z</time>
      </trkpt>
      <trkpt lat="45.23336" lon="0.46238">
        <ele>143.01001846174</ele>
        <time>2017-01-31T13:45:47Z</time>
      </trkpt>
      <trkpt lat="45.23341" lon="0.46248">
        <ele>144.00995868977</ele>
        <time>2017-01-31T13:45:55Z</time>
      </trkpt>
      <trkpt lat="45.23347" lon="0.46256">
        <ele>144.00990324253</ele>
        <time>2017-01-31T13:46:03Z</time>
      </trkpt>
      <trkpt lat="45.23351" lon="0.46266">
        <ele>144.00985322998</ele>
        <time>2017-01-31T13:46:10Z</time>
      </trkpt>
      <trkpt lat="45.23355" lon="0.46276">
        <ele>146.00980274503</ele>
        <time>2017-01-31T13:46:17Z</time>
      </trkpt>
      <trkpt lat="45.2336" lon="0.46285">
        <ele>146.00975224003</ele>
        <time>2017-01-31T13:46:24Z</time>
      </trkpt>
      <trkpt lat="45.23365" lon="0.46293">
        <ele>143.00969955572</ele>
        <time>2017-01-31T13:46:31Z</time>
      </trkpt>
      <trkpt lat="45.23368" lon="0.46304">
        <ele>143.00965136085</ele>
        <time>2017-01-31T13:46:39Z</time>
      </trkpt>
      <trkpt lat="45.23369" lon="0.46315">
        <ele>145.00961439251</ele>
        <time>2017-01-31T13:46:46Z</time>
      </trkpt>
      <trkpt lat="45.23374" lon="0.46325">
        <ele>146.00955968004</ele>
        <time>2017-01-31T13:46:53Z</time>
      </trkpt>
      <trkpt lat="45.23378" lon="0.46336">
        <ele>146.00950951947</ele>
        <time>2017-01-31T13:47:02Z</time>
      </trkpt>
      <trkpt lat="45.23382" lon="0.46346">
        <ele>145.00945900967</ele>
        <time>2017-01-31T13:47:09Z</time>
      </trkpt>
      <trkpt lat="45.23388" lon="0.46354">
        <ele>145.00940497994</ele>
        <time>2017-01-31T13:47:15Z</time>
      </trkpt>
      <trkpt lat="45.23388" lon="0.46367">
        <ele>146.00937446584</ele>
        <time>2017-01-31T13:47:22Z</time>
      </trkpt>
      <trkpt lat="45.23385" lon="0.46379">
        <ele>143.00935523446</ele>
        <time>2017-01-31T13:47:31Z</time>
      </trkpt>
      <trkpt lat="45.23385" lon="0.4639">
        <ele>141.00932988425</ele>
        <time>2017-01-31T13:47:38Z</time>
      </trkpt>
      <trkpt lat="45.23387" lon="0.46402">
        <ele>145.00928635485</ele>
        <time>2017-01-31T13:47:45Z</time>
      </trkpt>
      <trkpt lat="45.23391" lon="0.46412">
        <ele>151.00923594532</ele>
        <time>2017-01-31T13:47:52Z</time>
      </trkpt>
      <trkpt lat="45.23392" lon="0.46424">
        <ele>153.00919891886</ele>
        <time>2017-01-31T13:48:00Z</time>
      </trkpt>
      <trkpt lat="45.23395" lon="0.46434">
        <ele>153.00915694596</ele>
        <time>2017-01-31T13:48:08Z</time>
      </trkpt>
      <trkpt lat="45.23395" lon="0.46446">
        <ele>151.00912857879</ele>
        <time>2017-01-31T13:48:18Z</time>
      </trkpt>
      <trkpt lat="45.23398" lon="0.46456">
        <ele>151.00908176438</ele>
        <time>2017-01-31T13:48:24Z</time>
      </trkpt>
      <trkpt lat="45.23396" lon="0.46468">
        <ele>153.00906638811</ele>
        <time>2017-01-31T13:48:34Z</time>
      </trkpt>
      <trkpt lat="45.23392" lon="0.46479">
        <ele>152.00905899836</ele>
        <time>2017-01-31T13:48:40Z</time>
      </trkpt>
      <trkpt lat="45.23389" lon="0.4649">
        <ele>150.00904986173</ele>
        <time>2017-01-31T13:48:56Z</time>
      </trkpt>
      <trkpt lat="45.23386" lon="0.465">
        <ele>153.00903974156</ele>
        <time>2017-01-31T13:49:02Z</time>
      </trkpt>
      <trkpt lat="45.2338" lon="0.4651">
        <ele>153.00904438447</ele>
        <time>2017-01-31T13:49:07Z</time>
      </trkpt>
      <trkpt lat="45.23379" lon="0.46522">
        <ele>148.00901846586</ele>
        <time>2017-01-31T13:49:14Z</time>
      </trkpt>
      <trkpt lat="45.23383" lon="0.46531">
        <ele>150.00897576161</ele>
        <time>2017-01-31T13:49:21Z</time>
      </trkpt>
      <trkpt lat="45.23384" lon="0.46544">
        <ele>151.00893814235</ele>
        <time>2017-01-31T13:49:27Z</time>
      </trkpt>
      <trkpt lat="45.23379" lon="0.46552">
        <ele>150.00894448896</ele>
        <time>2017-01-31T13:49:34Z</time>
      </trkpt>
      <trkpt lat="45.23376" lon="0.46563">
        <ele>150.00893288223</ele>
        <time>2017-01-31T13:49:41Z</time>
      </trkpt>
      <trkpt lat="45.23374" lon="0.46575">
        <ele>146.00891331387</ele>
        <time>2017-01-31T13:49:48Z</time>
      </trkpt>
      <trkpt lat="45.23372" lon="0.46586">
        <ele>146.00889498637</ele>
        <time>2017-01-31T13:49:56Z</time>
      </trkpt>
      <trkpt lat="45.23368" lon="0.46596">
        <ele>146.00888696066</ele>
        <time>2017-01-31T13:50:02Z</time>
      </trkpt>
      <trkpt lat="45.23365" lon="0.46606">
        <ele>145.00888159697</ele>
        <time>2017-01-31T13:50:08Z</time>
      </trkpt>
      <trkpt lat="45.23365" lon="0.46619">
        <ele>150.0088483843</ele>
        <time>2017-01-31T13:50:15Z</time>
      </trkpt>
      <trkpt lat="45.23364" lon="0.4663">
        <ele>151.00882246985</ele>
        <time>2017-01-31T13:50:23Z</time>
      </trkpt>
      <trkpt lat="45.2336" lon="0.46642">
        <ele>148.00880925945</ele>
        <time>2017-01-31T13:50:32Z</time>
      </trkpt>
      <trkpt lat="45.23364" lon="0.46653">
        <ele>149.00875977461</ele>
        <time>2017-01-31T13:50:41Z</time>
      </trkpt>
      <trkpt lat="45.23363" lon="0.46665">
        <ele>151.00873642663</ele>
        <time>2017-01-31T13:50:49Z</time>
      </trkpt>
      <trkpt lat="45.23363" lon="0.46677">
        <ele>151.00870572129</ele>
        <time>2017-01-31T13:50:56Z</time>
      </trkpt>
      <trkpt lat="45.23361" lon="0.46689">
        <ele>150.00868157699</ele>
        <time>2017-01-31T13:51:03Z</time>
      </trkpt>
      <trkpt lat="45.2336" lon="0.46701">
        <ele>152.00865687791</ele>
        <time>2017-01-31T13:51:08Z</time>
      </trkpt>
      <trkpt lat="45.23361" lon="0.46712">
        <ele>155.00862091426</ele>
        <time>2017-01-31T13:51:17Z</time>
      </trkpt>
      <trkpt lat="45.23359" lon="0.46723">
        <ele>152.00860512331</ele>
        <time>2017-01-31T13:51:27Z</time>
      </trkpt>
      <trkpt lat="45.2336" lon="0.46735">
        <ele>152.00857003624</ele>
        <time>2017-01-31T13:51:38Z</time>
      </trkpt>
      <trkpt lat="45.23358" lon="0.46745">
        <ele>153.00855111804</ele>
        <time>2017-01-31T13:54:19Z</time>
      </trkpt>
      <trkpt lat="45.23353" lon="0.46755">
        <ele>149.00855118567</ele>
        <time>2017-01-31T13:54:24Z</time>
      </trkpt>
      <trkpt lat="45.23349" lon="0.46765">
        <ele>148.0085437315</ele>
        <time>2017-01-31T13:54:29Z</time>
      </trkpt>
      <trkpt lat="45.23344" lon="0.46775">
        <ele>150.00854305751</ele>
        <time>2017-01-31T13:54:37Z</time>
      </trkpt>
      <trkpt lat="45.2334" lon="0.46787">
        <ele>151.00853422429</ele>
        <time>2017-01-31T13:54:55Z</time>
      </trkpt>
      <trkpt lat="45.23335" lon="0.46798">
        <ele>152.00853408285</ele>
        <time>2017-01-31T13:55:00Z</time>
      </trkpt>
      <trkpt lat="45.23329" lon="0.46805">
        <ele>151.00854205087</ele>
        <time>2017-01-31T13:55:07Z</time>
      </trkpt>
      <trkpt lat="45.23326" lon="0.46816">
        <ele>152.00852835117</ele>
        <time>2017-01-31T13:55:11Z</time>
      </trkpt>
      <trkpt lat="45.23322" lon="0.46826">
        <ele>150.00852115524</ele>
        <time>2017-01-31T13:55:17Z</time>
      </trkpt>
      <trkpt lat="45.23319" lon="0.46838">
        <ele>152.00850291813</ele>
        <time>2017-01-31T13:55:27Z</time>
      </trkpt>
      <trkpt lat="45.23316" lon="0.46848">
        <ele>156.00849236075</ele>
        <time>2017-01-31T13:55:34Z</time>
      </trkpt>
      <trkpt lat="45.23311" lon="0.46856">
        <ele>156.0084962199</ele>
        <time>2017-01-31T13:55:41Z</time>
      </trkpt>
      <trkpt lat="45.23306" lon="0.46866">
        <ele>157.00849602343</ele>
        <time>2017-01-31T13:55:49Z</time>
      </trkpt>
      <trkpt lat="45.23303" lon="0.46876">
        <ele>157.00848247022</ele>
        <time>2017-01-31T13:55:57Z</time>
      </trkpt>
      <trkpt lat="45.23297" lon="0.46885">
        <ele>156.00848679246</ele>
        <time>2017-01-31T13:56:04Z</time>
      </trkpt>
      <trkpt lat="45.23293" lon="0.46896">
        <ele>154.00847759069</ele>
        <time>2017-01-31T13:56:10Z</time>
      </trkpt>
      <trkpt lat="45.23286" lon="0.46904">
        <ele>155.00849231868</ele>
        <time>2017-01-31T13:56:15Z</time>
      </trkpt>
      <trkpt lat="45.23279" lon="0.46912">
        <ele>154.00850196247</ele>
        <time>2017-01-31T13:56:22Z</time>
      </trkpt>
      <trkpt lat="45.23275" lon="0.46923">
        <ele>158.00849239001</ele>
        <time>2017-01-31T13:56:31Z</time>
      </trkpt>
      <trkpt lat="45.2327" lon="0.46932">
        <ele>160.00849094753</ele>
        <time>2017-01-31T13:56:42Z</time>
      </trkpt>
      <trkpt lat="45.23267" lon="0.46944">
        <ele>165.00847254118</ele>
        <time>2017-01-31T13:56:50Z</time>
      </trkpt>
      <trkpt lat="45.2326" lon="0.4695">
        <ele>161.00849332496</ele>
        <time>2017-01-31T13:56:56Z</time>
      </trkpt>
      <trkpt lat="45.23253" lon="0.46958">
        <ele>164.00850102779</ele>
        <time>2017-01-31T13:57:04Z</time>
      </trkpt>
      <trkpt lat="45.23245" lon="0.46961">
        <ele>160.00853128728</ele>
        <time>2017-01-31T13:57:10Z</time>
      </trkpt>
      <trkpt lat="45.23239" lon="0.46968">
        <ele>157.00854445086</ele>
        <time>2017-01-31T13:57:16Z</time>
      </trkpt>
      <trkpt lat="45.23235" lon="0.46975">
        <ele>160.00854106048</ele>
        <time>2017-01-31T13:57:33Z</time>
      </trkpt>
      <trkpt lat="45.23221" lon="0.4699">
        <ele>162.00856965969</ele>
        <time>2017-01-31T13:57:37Z</time>
      </trkpt>
      <trkpt lat="45.23212" lon="0.47">
        <ele>161.00858263145</ele>
        <time>2017-01-31T13:57:42Z</time>
      </trkpt>
      <trkpt lat="45.23204" lon="0.47003">
        <ele>156.00861284962</ele>
        <time>2017-01-31T13:57:49Z</time>
      </trkpt>
      <trkpt lat="45.23197" lon="0.47002">
        <ele>157.00864947396</ele>
        <time>2017-01-31T13:58:48Z</time>
      </trkpt>
      <trkpt lat="45.23187" lon="0.46995">
        <ele>154.00871932094</ele>
        <time>2017-01-31T13:58:52Z</time>
      </trkpt>
      <trkpt lat="45.23177" lon="0.46989">
        <ele>155.00878244632</ele>
        <time>2017-01-31T13:58:56Z</time>
      </trkpt>
      <trkpt lat="45.2317" lon="0.46992">
        <ele>155.00880887715</ele>
        <time>2017-01-31T13:59:00Z</time>
      </trkpt>
      <trkpt lat="45.23162" lon="0.46989">
        <ele>154.00885349147</ele>
        <time>2017-01-31T13:59:04Z</time>
      </trkpt>
      <trkpt lat="45.23154" lon="0.46986">
        <ele>155.0088995904</ele>
        <time>2017-01-31T13:59:09Z</time>
      </trkpt>
      <trkpt lat="45.23147" lon="0.46984">
        <ele>150.00894153748</ele>
        <time>2017-01-31T13:59:14Z</time>
      </trkpt>
      <trkpt lat="45.23139" lon="0.46984">
        <ele>153.0089811093</ele>
        <time>2017-01-31T13:59:19Z</time>
      </trkpt>
      <trkpt lat="45.23132" lon="0.46982">
        <ele>153.0090233894</ele>
        <time>2017-01-31T13:59:23Z</time>
      </trkpt>
      <trkpt lat="45.23124" lon="0.46979">
        <ele>153.00906981128</ele>
        <time>2017-01-31T13:59:27Z</time>
      </trkpt>
      <trkpt lat="45.23113" lon="0.46976">
        <ele>156.00913227266</ele>
        <time>2017-01-31T13:59:32Z</time>
      </trkpt>
      <trkpt lat="45.23106" lon="0.46969">
        <ele>157.00918619165</ele>
        <time>2017-01-31T13:59:37Z</time>
      </trkpt>
      <trkpt lat="45.23098" lon="0.46964">
        <ele>159.0092383372</ele>
        <time>2017-01-31T13:59:42Z</time>
      </trkpt>
      <trkpt lat="45.23091" lon="0.46961">
        <ele>159.00928063804</ele>
        <time>2017-01-31T13:59:46Z</time>
      </trkpt>
      <trkpt lat="45.23081" lon="0.46958">
        <ele>158.00934220738</ele>
        <time>2017-01-31T13:59:51Z</time>
      </trkpt>
      <trkpt lat="45.23072" lon="0.46958">
        <ele>156.00938368757</ele>
        <time>2017-01-31T13:59:57Z</time>
      </trkpt>
      <trkpt lat="45.23064" lon="0.46954">
        <ele>157.00943529764</ele>
        <time>2017-01-31T14:00:10Z</time>
      </trkpt>
      <trkpt lat="45.23056" lon="0.46949">
        <ele>156.00948741366</ele>
        <time>2017-01-31T14:00:18Z</time>
      </trkpt>
      <trkpt lat="45.23048" lon="0.46949">
        <ele>156.00952801564</ele>
        <time>2017-01-31T14:00:24Z</time>
      </trkpt>
      <trkpt lat="45.2304" lon="0.46948">
        <ele>157.00956993712</ele>
        <time>2017-01-31T14:00:30Z</time>
      </trkpt>
      <trkpt lat="45.23032" lon="0.46944">
        <ele>158.00962198995</ele>
        <time>2017-01-31T14:00:38Z</time>
      </trkpt>
      <trkpt lat="45.23024" lon="0.46942">
        <ele>159.00966945152</ele>
        <time>2017-01-31T14:00:47Z</time>
      </trkpt>
      <trkpt lat="45.23016" lon="0.46937">
        <ele>159.00972240178</ele>
        <time>2017-01-31T14:00:55Z</time>
      </trkpt>
      <trkpt lat="45.23009" lon="0.46933">
        <ele>157.009771847</ele>
        <time>2017-01-31T14:01:06Z</time>
      </trkpt>
      <trkpt lat="45.23" lon="0.46934">
        <ele>157.00981164875</ele>
        <time>2017-01-31T14:01:10Z</time>
      </trkpt>
      <trkpt lat="45.22993" lon="0.46932">
        <ele>158.00985269228</ele>
        <time>2017-01-31T14:01:16Z</time>
      </trkpt>
      <trkpt lat="45.22985" lon="0.46928">
        <ele>153.00990486652</ele>
        <time>2017-01-31T14:01:26Z</time>
      </trkpt>
      <trkpt lat="45.22977" lon="0.46924">
        <ele>152.00995758862</ele>
        <time>2017-01-31T14:01:34Z</time>
      </trkpt>
      <trkpt lat="45.2297" lon="0.46921">
        <ele>153.01000205364</ele>
        <time>2017-01-31T14:01:41Z</time>
      </trkpt>
      <trkpt lat="45.22963" lon="0.46916">
        <ele>153.01005452118</ele>
        <time>2017-01-31T14:01:47Z</time>
      </trkpt>
      <trkpt lat="45.22956" lon="0.4691">
        <ele>153.01010378096</ele>
        <time>2017-01-31T14:01:57Z</time>
      </trkpt>
      <trkpt lat="45.22948" lon="0.46905">
        <ele>149.0101607184</ele>
        <time>2017-01-31T14:02:16Z</time>
      </trkpt>
      <trkpt lat="45.22941" lon="0.46899">
        <ele>149.01021608901</ele>
        <time>2017-01-31T14:02:20Z</time>
      </trkpt>
      <trkpt lat="45.22932" lon="0.46891">
        <ele>147.01028512764</ele>
        <time>2017-01-31T14:02:25Z</time>
      </trkpt>
      <trkpt lat="45.22925" lon="0.46884">
        <ele>143.01034401867</ele>
        <time>2017-01-31T14:02:32Z</time>
      </trkpt>
      <trkpt lat="45.22918" lon="0.46881">
        <ele>145.01039210639</ele>
        <time>2017-01-31T14:02:39Z</time>
      </trkpt>
      <trkpt lat="45.22911" lon="0.46877">
        <ele>144.01043841937</ele>
        <time>2017-01-31T14:02:46Z</time>
      </trkpt>
      <trkpt lat="45.22903" lon="0.46873">
        <ele>145.01049406971</ele>
        <time>2017-01-31T14:02:53Z</time>
      </trkpt>
      <trkpt lat="45.22895" lon="0.46871">
        <ele>150.01054028321</ele>
        <time>2017-01-31T14:03:02Z</time>
      </trkpt>
      <trkpt lat="45.22888" lon="0.46865">
        <ele>151.01059369581</ele>
        <time>2017-01-31T14:03:09Z</time>
      </trkpt>
      <trkpt lat="45.2288" lon="0.4686">
        <ele>147.01065080745</ele>
        <time>2017-01-31T14:03:17Z</time>
      </trkpt>
      <trkpt lat="45.22873" lon="0.46854">
        <ele>144.01070968283</ele>
        <time>2017-01-31T14:03:28Z</time>
      </trkpt>
      <trkpt lat="45.22866" lon="0.46846">
        <ele>133.01077075409</ele>
        <time>2017-01-31T14:03:38Z</time>
      </trkpt>
      <trkpt lat="45.2286" lon="0.46838">
        <ele>127.01082714181</ele>
        <time>2017-01-31T14:03:51Z</time>
      </trkpt>
      <trkpt lat="45.22852" lon="0.46833">
        <ele>121.01088582193</ele>
        <time>2017-01-31T14:04:01Z</time>
      </trkpt>
      <trkpt lat="45.22844" lon="0.46828">
        <ele>120.01094304451</ele>
        <time>2017-01-31T14:04:12Z</time>
      </trkpt>
      <trkpt lat="45.22836" lon="0.46823">
        <ele>120.01099902002</ele>
        <time>2017-01-31T14:04:21Z</time>
      </trkpt>
      <trkpt lat="45.2283" lon="0.46814">
        <ele>119.01106202949</ele>
        <time>2017-01-31T14:04:29Z</time>
      </trkpt>
      <trkpt lat="45.22828" lon="0.46803">
        <ele>125.01111218583</ele>
        <time>2017-01-31T14:04:39Z</time>
      </trkpt>
      <trkpt lat="45.22822" lon="0.46794">
        <ele>129.01117449791</ele>
        <time>2017-01-31T14:04:45Z</time>
      </trkpt>
      <trkpt lat="45.22813" lon="0.46794">
        <ele>127.01121571053</ele>
        <time>2017-01-31T14:04:50Z</time>
      </trkpt>
      <trkpt lat="45.22815" lon="0.46792">
        <ele>129.01121597757</ele>
        <time>2017-01-31T14:04:57Z</time>
      </trkpt>
      <trkpt lat="45.22814" lon="0.46782">
        <ele>126.01125601155</ele>
        <time>2017-01-31T14:05:02Z</time>
      </trkpt>
      <trkpt lat="45.22808" lon="0.46769">
        <ele>125.01133309687</ele>
        <time>2017-01-31T14:05:07Z</time>
      </trkpt>
      <trkpt lat="45.22799" lon="0.46771">
        <ele>120.01137103863</ele>
        <time>2017-01-31T14:05:13Z</time>
      </trkpt>
      <trkpt lat="45.22792" lon="0.46775">
        <ele>121.01139038721</ele>
        <time>2017-01-31T14:05:21Z</time>
      </trkpt>
      <trkpt lat="45.22787" lon="0.46768">
        <ele>120.01144760807</ele>
        <time>2017-01-31T14:05:30Z</time>
      </trkpt>
      <trkpt lat="45.22785" lon="0.46757">
        <ele>116.01149344306</ele>
        <time>2017-01-31T14:05:34Z</time>
      </trkpt>
      <trkpt lat="45.22779" lon="0.46753">
        <ele>114.01153881555</ele>
        <time>2017-01-31T14:05:43Z</time>
      </trkpt>
      <trkpt lat="45.22772" lon="0.46749">
        <ele>115.0115896002</ele>
        <time>2017-01-31T14:05:50Z</time>
      </trkpt>
      <trkpt lat="45.2277" lon="0.46739">
        <ele>109.01163649518</ele>
        <time>2017-01-31T14:05:59Z</time>
      </trkpt>
      <trkpt lat="45.22761" lon="0.46738">
        <ele>114.01168586918</ele>
        <time>2017-01-31T14:06:08Z</time>
      </trkpt>
      <trkpt lat="45.22753" lon="0.46736">
        <ele>112.01173652065</ele>
        <time>2017-01-31T14:06:17Z</time>
      </trkpt>
      <trkpt lat="45.22745" lon="0.46732">
        <ele>111.01179245211</ele>
        <time>2017-01-31T14:06:27Z</time>
      </trkpt>
      <trkpt lat="45.22737" lon="0.46728">
        <ele>107.01185098293</ele>
        <time>2017-01-31T14:06:36Z</time>
      </trkpt>
      <trkpt lat="45.2273" lon="0.46724">
        <ele>110.01189680758</ele>
        <time>2017-01-31T14:06:42Z</time>
      </trkpt>
      <trkpt lat="45.22725" lon="0.46719">
        <ele>106.0119424608</ele>
        <time>2017-01-31T14:06:48Z</time>
      </trkpt>
      <trkpt lat="45.22719" lon="0.46711">
        <ele>106.01200213408</ele>
        <time>2017-01-31T14:06:54Z</time>
      </trkpt>
      <trkpt lat="45.22711" lon="0.46705">
        <ele>101.01206490701</ele>
        <time>2017-01-31T14:06:59Z</time>
      </trkpt>
      <trkpt lat="45.22709" lon="0.46694">
        <ele>104.01211937002</ele>
        <time>2017-01-31T14:07:05Z</time>
      </trkpt>
      <trkpt lat="45.22707" lon="0.46684">
        <ele>104.01216802023</ele>
        <time>2017-01-31T14:07:13Z</time>
      </trkpt>
      <trkpt lat="45.22709" lon="0.46672">
        <ele>104.01219722103</ele>
        <time>2017-01-31T14:07:18Z</time>
      </trkpt>
      <trkpt lat="45.22708" lon="0.46661">
        <ele>99.012247211419</ele>
        <time>2017-01-31T14:07:26Z</time>
      </trkpt>
      <trkpt lat="45.22707" lon="0.46648">
        <ele>102.0122984536</ele>
        <time>2017-01-31T14:07:33Z</time>
      </trkpt>
      <trkpt lat="45.22706" lon="0.46636">
        <ele>104.01234399737</ele>
        <time>2017-01-31T14:07:38Z</time>
      </trkpt>
      <trkpt lat="45.2271" lon="0.46627">
        <ele>106.01235820419</ele>
        <time>2017-01-31T14:07:44Z</time>
      </trkpt>
      <trkpt lat="45.22712" lon="0.46615">
        <ele>104.0123947167</ele>
        <time>2017-01-31T14:08:35Z</time>
      </trkpt>
      <trkpt lat="45.22709" lon="0.46605">
        <ele>102.01244507123</ele>
        <time>2017-01-31T14:08:40Z</time>
      </trkpt>
      <trkpt lat="45.22706" lon="0.46594">
        <ele>105.01250176802</ele>
        <time>2017-01-31T14:08:46Z</time>
      </trkpt>
      <trkpt lat="45.22707" lon="0.46583">
        <ele>100.0125403731</ele>
        <time>2017-01-31T14:08:53Z</time>
      </trkpt>
      <trkpt lat="45.227" lon="0.46575">
        <ele>99.012602413307</ele>
        <time>2017-01-31T14:08:59Z</time>
      </trkpt>
      <trkpt lat="45.22693" lon="0.46568">
        <ele>96.012669053676</ele>
        <time>2017-01-31T14:09:06Z</time>
      </trkpt>
      <trkpt lat="45.22688" lon="0.46557">
        <ele>98.012734134683</ele>
        <time>2017-01-31T14:09:16Z</time>
      </trkpt>
      <trkpt lat="45.22684" lon="0.46548">
        <ele>99.012795472193</ele>
        <time>2017-01-31T14:09:23Z</time>
      </trkpt>
      <trkpt lat="45.22678" lon="0.4654">
        <ele>97.012857147338</ele>
        <time>2017-01-31T14:09:30Z</time>
      </trkpt>
      <trkpt lat="45.22675" lon="0.46529">
        <ele>97.012914660232</ele>
        <time>2017-01-31T14:09:39Z</time>
      </trkpt>
      <trkpt lat="45.2267" lon="0.46519">
        <ele>100.01297921837</ele>
        <time>2017-01-31T14:09:46Z</time>
      </trkpt>
      <trkpt lat="45.22663" lon="0.46512">
        <ele>101.01304064998</ele>
        <time>2017-01-31T14:09:51Z</time>
      </trkpt>
      <trkpt lat="45.22656" lon="0.46506">
        <ele>102.01310698823</ele>
        <time>2017-01-31T14:09:57Z</time>
      </trkpt>
      <trkpt lat="45.22647" lon="0.46501">
        <ele>104.01317005651</ele>
        <time>2017-01-31T14:10:04Z</time>
      </trkpt>
      <trkpt lat="45.22642" lon="0.46498">
        <ele>103.01321540833</ele>
        <time>2017-01-31T14:10:09Z</time>
      </trkpt>
      <trkpt lat="45.22633" lon="0.46496">
        <ele>103.01327021594</ele>
        <time>2017-01-31T14:10:15Z</time>
      </trkpt>
      <trkpt lat="45.22626" lon="0.46492">
        <ele>103.01332838461</ele>
        <time>2017-01-31T14:10:26Z</time>
      </trkpt>
      <trkpt lat="45.22621" lon="0.46484">
        <ele>102.01338529842</ele>
        <time>2017-01-31T14:10:30Z</time>
      </trkpt>
      <trkpt lat="45.22612" lon="0.46485">
        <ele>100.0134303648</ele>
        <time>2017-01-31T14:10:36Z</time>
      </trkpt>
      <trkpt lat="45.22604" lon="0.46479">
        <ele>106.01349563334</ele>
        <time>2017-01-31T14:10:45Z</time>
      </trkpt>
      <trkpt lat="45.22599" lon="0.46486">
        <ele>103.0134981529</ele>
        <time>2017-01-31T14:10:51Z</time>
      </trkpt>
      <trkpt lat="45.22591" lon="0.46492">
        <ele>105.01352250433</ele>
        <time>2017-01-31T14:10:59Z</time>
      </trkpt>
      <trkpt lat="45.22586" lon="0.46482">
        <ele>106.01358998853</ele>
        <time>2017-01-31T14:11:03Z</time>
      </trkpt>
      <trkpt lat="45.22573" lon="0.46482">
        <ele>102.01365804727</ele>
        <time>2017-01-31T14:11:08Z</time>
      </trkpt>
      <trkpt lat="45.2257" lon="0.46473">
        <ele>102.01371423946</ele>
        <time>2017-01-31T14:12:10Z</time>
      </trkpt>
      <trkpt lat="45.22565" lon="0.46467">
        <ele>102.01376902741</ele>
        <time>2017-01-31T14:12:14Z</time>
      </trkpt>
      <trkpt lat="45.2256" lon="0.46458">
        <ele>102.01383072589</ele>
        <time>2017-01-31T14:12:24Z</time>
      </trkpt>
      <trkpt lat="45.22552" lon="0.46459">
        <ele>107.01386844471</ele>
        <time>2017-01-31T14:12:28Z</time>
      </trkpt>
      <trkpt lat="45.22539" lon="0.46455">
        <ele>107.01396071664</ele>
        <time>2017-01-31T14:12:33Z</time>
      </trkpt>
      <trkpt lat="45.22532" lon="0.46456">
        <ele>104.01399749528</ele>
        <time>2017-01-31T14:12:39Z</time>
      </trkpt>
      <trkpt lat="45.22525" lon="0.46455">
        <ele>105.01404136182</ele>
        <time>2017-01-31T14:12:50Z</time>
      </trkpt>
      <trkpt lat="45.22517" lon="0.46453">
        <ele>107.01409255904</ele>
        <time>2017-01-31T14:12:58Z</time>
      </trkpt>
      <trkpt lat="45.2251" lon="0.46453">
        <ele>107.01413153071</ele>
        <time>2017-01-31T14:13:02Z</time>
      </trkpt>
      <trkpt lat="45.22502" lon="0.4645">
        <ele>111.01419269696</ele>
        <time>2017-01-31T14:13:13Z</time>
      </trkpt>
      <trkpt lat="45.22498" lon="0.46438">
        <ele>110.01425764827</ele>
        <time>2017-01-31T14:13:19Z</time>
      </trkpt>
      <trkpt lat="45.22497" lon="0.4643">
        <ele>110.01429918257</ele>
        <time>2017-01-31T14:13:23Z</time>
      </trkpt>
      <trkpt lat="45.22496" lon="0.46422">
        <ele>111.01433371049</ele>
        <time>2017-01-31T14:13:28Z</time>
      </trkpt>
      <trkpt lat="45.22489" lon="0.46425">
        <ele>110.01436296609</ele>
        <time>2017-01-31T14:13:40Z</time>
      </trkpt>
      <trkpt lat="45.22477" lon="0.46429">
        <ele>106.01441276398</ele>
        <time>2017-01-31T14:13:45Z</time>
      </trkpt>
      <trkpt lat="45.22469" lon="0.46433">
        <ele>112.01444524421</ele>
        <time>2017-01-31T14:13:52Z</time>
      </trkpt>
      <trkpt lat="45.22463" lon="0.46425">
        <ele>110.01451355959</ele>
        <time>2017-01-31T14:14:01Z</time>
      </trkpt>
      <trkpt lat="45.22456" lon="0.46418">
        <ele>109.01458061647</ele>
        <time>2017-01-31T14:14:10Z</time>
      </trkpt>
      <trkpt lat="45.22449" lon="0.46413">
        <ele>112.01463864424</ele>
        <time>2017-01-31T14:14:19Z</time>
      </trkpt>
      <trkpt lat="45.22441" lon="0.46414">
        <ele>112.01468486606</ele>
        <time>2017-01-31T14:14:26Z</time>
      </trkpt>
      <trkpt lat="45.22433" lon="0.4641">
        <ele>113.01474343747</ele>
        <time>2017-01-31T14:14:33Z</time>
      </trkpt>
      <trkpt lat="45.22426" lon="0.46407">
        <ele>118.01480014823</ele>
        <time>2017-01-31T14:14:40Z</time>
      </trkpt>
      <trkpt lat="45.22418" lon="0.46404">
        <ele>115.01485367759</ele>
        <time>2017-01-31T14:14:46Z</time>
      </trkpt>
      <trkpt lat="45.22411" lon="0.464">
        <ele>115.01491183965</ele>
        <time>2017-01-31T14:14:57Z</time>
      </trkpt>
      <trkpt lat="45.22405" lon="0.46392">
        <ele>122.01498075934</ele>
        <time>2017-01-31T14:15:06Z</time>
      </trkpt>
      <trkpt lat="45.22398" lon="0.46384">
        <ele>119.01505252118</ele>
        <time>2017-01-31T14:15:10Z</time>
      </trkpt>
      <trkpt lat="45.22391" lon="0.46377">
        <ele>125.01512109842</ele>
        <time>2017-01-31T14:15:22Z</time>
      </trkpt>
      <trkpt lat="45.22387" lon="0.46366">
        <ele>123.01519216205</ele>
        <time>2017-01-31T14:15:29Z</time>
      </trkpt>
      <trkpt lat="45.2238" lon="0.4636">
        <ele>132.01526072041</ele>
        <time>2017-01-31T14:15:40Z</time>
      </trkpt>
      <trkpt lat="45.22373" lon="0.46352">
        <ele>128.01532978829</ele>
        <time>2017-01-31T14:15:47Z</time>
      </trkpt>
      <trkpt lat="45.22365" lon="0.46354">
        <ele>134.01537194726</ele>
        <time>2017-01-31T14:15:55Z</time>
      </trkpt>
      <trkpt lat="45.22359" lon="0.46352">
        <ele>134.01541640883</ele>
        <time>2017-01-31T14:16:00Z</time>
      </trkpt>
      <trkpt lat="45.22352" lon="0.46344">
        <ele>136.0154906337</ele>
        <time>2017-01-31T14:16:09Z</time>
      </trkpt>
      <trkpt lat="45.22343" lon="0.46341">
        <ele>142.01555510288</ele>
        <time>2017-01-31T14:16:21Z</time>
      </trkpt>
      <trkpt lat="45.22335" lon="0.46337">
        <ele>138.01561850961</ele>
        <time>2017-01-31T14:16:29Z</time>
      </trkpt>
      <trkpt lat="45.22323" lon="0.46333">
        <ele>139.01570669965</ele>
        <time>2017-01-31T14:16:33Z</time>
      </trkpt>
      <trkpt lat="45.22322" lon="0.4632">
        <ele>139.01576421573</ele>
        <time>2017-01-31T14:16:49Z</time>
      </trkpt>
      <trkpt lat="45.22312" lon="0.4632">
        <ele>138.01583185721</ele>
        <time>2017-01-31T14:16:54Z</time>
      </trkpt>
      <trkpt lat="45.22304" lon="0.46318">
        <ele>136.01588126636</ele>
        <time>2017-01-31T14:17:01Z</time>
      </trkpt>
      <trkpt lat="45.22296" lon="0.46314">
        <ele>133.01594527669</ele>
        <time>2017-01-31T14:17:10Z</time>
      </trkpt>
      <trkpt lat="45.22291" lon="0.46305">
        <ele>135.01601803278</ele>
        <time>2017-01-31T14:17:21Z</time>
      </trkpt>
      <trkpt lat="45.22284" lon="0.46298">
        <ele>138.01609175891</ele>
        <time>2017-01-31T14:17:30Z</time>
      </trkpt>
      <trkpt lat="45.22272" lon="0.46297">
        <ele>136.01616592592</ele>
        <time>2017-01-31T14:17:34Z</time>
      </trkpt>
      <trkpt lat="45.22267" lon="0.46288">
        <ele>139.01623031464</ele>
        <time>2017-01-31T14:17:45Z</time>
      </trkpt>
      <trkpt lat="45.22261" lon="0.46287">
        <ele>140.01627342463</ele>
        <time>2017-01-31T14:17:49Z</time>
      </trkpt>
      <trkpt lat="45.22253" lon="0.46285">
        <ele>139.01632875489</ele>
        <time>2017-01-31T14:17:56Z</time>
      </trkpt>
      <trkpt lat="45.22249" lon="0.46275">
        <ele>145.01639814254</ele>
        <time>2017-01-31T14:18:08Z</time>
      </trkpt>
      <trkpt lat="45.22242" lon="0.46268">
        <ele>146.01646660654</ele>
        <time>2017-01-31T14:18:16Z</time>
      </trkpt>
      <trkpt lat="45.22234" lon="0.46268">
        <ele>146.01652000925</ele>
        <time>2017-01-31T14:18:22Z</time>
      </trkpt>
      <trkpt lat="45.22232" lon="0.46259">
        <ele>145.01657307114</ele>
        <time>2017-01-31T14:18:31Z</time>
      </trkpt>
      <trkpt lat="45.22225" lon="0.4625">
        <ele>145.01664807777</ele>
        <time>2017-01-31T14:18:41Z</time>
      </trkpt>
      <trkpt lat="45.22217" lon="0.46248">
        <ele>145.01670689253</ele>
        <time>2017-01-31T14:18:49Z</time>
      </trkpt>
      <trkpt lat="45.22209" lon="0.46244">
        <ele>144.0167728387</ele>
        <time>2017-01-31T14:18:56Z</time>
      </trkpt>
      <trkpt lat="45.22201" lon="0.4624">
        <ele>145.016839898</ele>
        <time>2017-01-31T14:19:04Z</time>
      </trkpt>
      <trkpt lat="45.22196" lon="0.46232">
        <ele>145.01690574238</ele>
        <time>2017-01-31T14:19:11Z</time>
      </trkpt>
      <trkpt lat="45.22187" lon="0.46233">
        <ele>146.01695567599</ele>
        <time>2017-01-31T14:19:17Z</time>
      </trkpt>
      <trkpt lat="45.22186" lon="0.4622">
        <ele>146.01701918855</ele>
        <time>2017-01-31T14:19:24Z</time>
      </trkpt>
      <trkpt lat="45.22179" lon="0.46214">
        <ele>146.0170850293</ele>
        <time>2017-01-31T14:19:33Z</time>
      </trkpt>
      <trkpt lat="45.22172" lon="0.46209">
        <ele>147.01715291431</ele>
        <time>2017-01-31T14:19:39Z</time>
      </trkpt>
      <trkpt lat="45.22167" lon="0.462">
        <ele>147.01722544418</ele>
        <time>2017-01-31T14:19:48Z</time>
      </trkpt>
      <trkpt lat="45.2216" lon="0.46194">
        <ele>148.01729721951</ele>
        <time>2017-01-31T14:19:56Z</time>
      </trkpt>
      <trkpt lat="45.22153" lon="0.46186">
        <ele>155.01737638647</ele>
        <time>2017-01-31T14:20:05Z</time>
      </trkpt>
      <trkpt lat="45.22146" lon="0.4618">
        <ele>154.01744221481</ele>
        <time>2017-01-31T14:20:13Z</time>
      </trkpt>
      <trkpt lat="45.22139" lon="0.46172">
        <ele>155.01752042847</ele>
        <time>2017-01-31T14:20:21Z</time>
      </trkpt>
      <trkpt lat="45.22132" lon="0.46167">
        <ele>155.01758841356</ele>
        <time>2017-01-31T14:20:28Z</time>
      </trkpt>
      <trkpt lat="45.22125" lon="0.46161">
        <ele>154.01765735886</ele>
        <time>2017-01-31T14:20:36Z</time>
      </trkpt>
      <trkpt lat="45.22118" lon="0.46155">
        <ele>154.01773419767</ele>
        <time>2017-01-31T14:20:43Z</time>
      </trkpt>
      <trkpt lat="45.22111" lon="0.46148">
        <ele>157.01780576196</ele>
        <time>2017-01-31T14:20:51Z</time>
      </trkpt>
      <trkpt lat="45.22105" lon="0.46141">
        <ele>157.01787979284</ele>
        <time>2017-01-31T14:20:58Z</time>
      </trkpt>
      <trkpt lat="45.22098" lon="0.46133">
        <ele>160.01795935577</ele>
        <time>2017-01-31T14:21:06Z</time>
      </trkpt>
      <trkpt lat="45.22089" lon="0.46128">
        <ele>162.01802967234</ele>
        <time>2017-01-31T14:21:14Z</time>
      </trkpt>
      <trkpt lat="45.22082" lon="0.46122">
        <ele>159.01810620055</ele>
        <time>2017-01-31T14:21:21Z</time>
      </trkpt>
      <trkpt lat="45.22077" lon="0.46113">
        <ele>157.01817690699</ele>
        <time>2017-01-31T14:21:26Z</time>
      </trkpt>
      <trkpt lat="45.2207" lon="0.46107">
        <ele>159.01824949663</ele>
        <time>2017-01-31T14:21:33Z</time>
      </trkpt>
      <trkpt lat="45.22063" lon="0.46101">
        <ele>162.01831991989</ele>
        <time>2017-01-31T14:21:41Z</time>
      </trkpt>
      <trkpt lat="45.22056" lon="0.46094">
        <ele>159.01839619746</ele>
        <time>2017-01-31T14:21:50Z</time>
      </trkpt>
      <trkpt lat="45.2205" lon="0.46089">
        <ele>161.0184564383</ele>
        <time>2017-01-31T14:21:56Z</time>
      </trkpt>
      <trkpt lat="45.22045" lon="0.46081">
        <ele>160.01852873909</ele>
        <time>2017-01-31T14:22:01Z</time>
      </trkpt>
      <trkpt lat="45.22039" lon="0.46075">
        <ele>165.01859469311</ele>
        <time>2017-01-31T14:22:09Z</time>
      </trkpt>
      <trkpt lat="45.22032" lon="0.46067">
        <ele>164.01867672957</ele>
        <time>2017-01-31T14:22:16Z</time>
      </trkpt>
      <trkpt lat="45.22026" lon="0.46059">
        <ele>160.01875158367</ele>
        <time>2017-01-31T14:22:23Z</time>
      </trkpt>
      <trkpt lat="45.22019" lon="0.46051">
        <ele>160.01883449056</ele>
        <time>2017-01-31T14:22:30Z</time>
      </trkpt>
      <trkpt lat="45.22013" lon="0.46042">
        <ele>160.01891750994</ele>
        <time>2017-01-31T14:22:35Z</time>
      </trkpt>
      <trkpt lat="45.22007" lon="0.46035">
        <ele>166.0189892397</ele>
        <time>2017-01-31T14:22:43Z</time>
      </trkpt>
      <trkpt lat="45.22002" lon="0.46027">
        <ele>168.01905419676</ele>
        <time>2017-01-31T14:22:50Z</time>
      </trkpt>
      <trkpt lat="45.21998" lon="0.46017">
        <ele>162.01913066673</ele>
        <time>2017-01-31T14:22:57Z</time>
      </trkpt>
      <trkpt lat="45.2199" lon="0.46017">
        <ele>160.01918604418</ele>
        <time>2017-01-31T14:23:02Z</time>
      </trkpt>
      <trkpt lat="45.21983" lon="0.46009">
        <ele>161.01926618223</ele>
        <time>2017-01-31T14:23:11Z</time>
      </trkpt>
      <trkpt lat="45.21979" lon="0.45999">
        <ele>160.01934137899</ele>
        <time>2017-01-31T14:23:17Z</time>
      </trkpt>
      <trkpt lat="45.21971" lon="0.45997">
        <ele>161.019402877</ele>
        <time>2017-01-31T14:23:23Z</time>
      </trkpt>
      <trkpt lat="45.21969" lon="0.45985">
        <ele>160.01947250523</ele>
        <time>2017-01-31T14:23:30Z</time>
      </trkpt>
      <trkpt lat="45.21963" lon="0.45976">
        <ele>159.01955185416</ele>
        <time>2017-01-31T14:23:39Z</time>
      </trkpt>
      <trkpt lat="45.21955" lon="0.45971">
        <ele>155.01962697041</ele>
        <time>2017-01-31T14:23:47Z</time>
      </trkpt>
      <trkpt lat="45.21947" lon="0.45967">
        <ele>160.0197027625</ele>
        <time>2017-01-31T14:23:56Z</time>
      </trkpt>
      <trkpt lat="45.21943" lon="0.45957">
        <ele>159.01977700249</ele>
        <time>2017-01-31T14:24:01Z</time>
      </trkpt>
      <trkpt lat="45.21936" lon="0.45949">
        <ele>157.01985734159</ele>
        <time>2017-01-31T14:24:09Z</time>
      </trkpt>
      <trkpt lat="45.21928" lon="0.45946">
        <ele>157.01992953022</ele>
        <time>2017-01-31T14:24:18Z</time>
      </trkpt>
      <trkpt lat="45.2192" lon="0.45941">
        <ele>156.02000457108</ele>
        <time>2017-01-31T14:24:25Z</time>
      </trkpt>
      <trkpt lat="45.21912" lon="0.45934">
        <ele>157.02008770117</ele>
        <time>2017-01-31T14:24:33Z</time>
      </trkpt>
      <trkpt lat="45.21904" lon="0.45932">
        <ele>157.02015387466</ele>
        <time>2017-01-31T14:24:38Z</time>
      </trkpt>
      <trkpt lat="45.21898" lon="0.45925">
        <ele>161.02022572072</ele>
        <time>2017-01-31T14:24:46Z</time>
      </trkpt>
      <trkpt lat="45.2189" lon="0.45922">
        <ele>165.02029085526</ele>
        <time>2017-01-31T14:24:52Z</time>
      </trkpt>
      <trkpt lat="45.21884" lon="0.45915">
        <ele>166.02037021332</ele>
        <time>2017-01-31T14:25:00Z</time>
      </trkpt>
      <trkpt lat="45.21879" lon="0.45906">
        <ele>164.02044469176</ele>
        <time>2017-01-31T14:25:06Z</time>
      </trkpt>
      <trkpt lat="45.21871" lon="0.45901">
        <ele>162.02052234273</ele>
        <time>2017-01-31T14:25:13Z</time>
      </trkpt>
      <trkpt lat="45.21867" lon="0.45891">
        <ele>161.02060098734</ele>
        <time>2017-01-31T14:25:20Z</time>
      </trkpt>
      <trkpt lat="45.21861" lon="0.45882">
        <ele>160.02068467823</ele>
        <time>2017-01-31T14:25:27Z</time>
      </trkpt>
      <trkpt lat="45.21854" lon="0.45874">
        <ele>154.02076933162</ele>
        <time>2017-01-31T14:25:35Z</time>
      </trkpt>
      <trkpt lat="45.21847" lon="0.45869">
        <ele>153.0208407158</ele>
        <time>2017-01-31T14:25:42Z</time>
      </trkpt>
      <trkpt lat="45.21841" lon="0.45863">
        <ele>156.0209118668</ele>
        <time>2017-01-31T14:25:48Z</time>
      </trkpt>
      <trkpt lat="45.21833" lon="0.4586">
        <ele>154.02098217256</ele>
        <time>2017-01-31T14:25:54Z</time>
      </trkpt>
      <trkpt lat="45.21826" lon="0.45851">
        <ele>154.02106754736</ele>
        <time>2017-01-31T14:26:02Z</time>
      </trkpt>
      <trkpt lat="45.2182" lon="0.45842">
        <ele>154.02115191149</ele>
        <time>2017-01-31T14:26:08Z</time>
      </trkpt>
      <trkpt lat="45.21814" lon="0.45844">
        <ele>153.02118570695</ele>
        <time>2017-01-31T14:26:12Z</time>
      </trkpt>
      <trkpt lat="45.21809" lon="0.45835">
        <ele>151.02126775473</ele>
        <time>2017-01-31T14:26:19Z</time>
      </trkpt>
      <trkpt lat="45.21802" lon="0.45829">
        <ele>154.02134514586</ele>
        <time>2017-01-31T14:26:28Z</time>
      </trkpt>
      <trkpt lat="45.21795" lon="0.45821">
        <ele>157.02142845639</ele>
        <time>2017-01-31T14:26:35Z</time>
      </trkpt>
      <trkpt lat="45.21787" lon="0.4582">
        <ele>158.02149014483</ele>
        <time>2017-01-31T14:26:39Z</time>
      </trkpt>
      <trkpt lat="45.21779" lon="0.45825">
        <ele>158.0215142029</ele>
        <time>2017-01-31T14:26:47Z</time>
      </trkpt>
      <trkpt lat="45.21771" lon="0.45828">
        <ele>158.02155423413</ele>
        <time>2017-01-31T14:26:53Z</time>
      </trkpt>
      <trkpt lat="45.21769" lon="0.45809">
        <ele>161.02166625609</ele>
        <time>2017-01-31T14:26:57Z</time>
      </trkpt>
      <trkpt lat="45.21767" lon="0.45793">
        <ele>157.02176067771</ele>
        <time>2017-01-31T14:27:01Z</time>
      </trkpt>
      <trkpt lat="45.21758" lon="0.45795">
        <ele>152.02181210641</ele>
        <time>2017-01-31T14:27:07Z</time>
      </trkpt>
      <trkpt lat="45.21752" lon="0.45786">
        <ele>153.02190139666</ele>
        <time>2017-01-31T14:27:15Z</time>
      </trkpt>
      <trkpt lat="45.21745" lon="0.45782">
        <ele>153.02196723232</ele>
        <time>2017-01-31T14:27:22Z</time>
      </trkpt>
      <trkpt lat="45.21739" lon="0.45772">
        <ele>159.02205646813</ele>
        <time>2017-01-31T14:27:28Z</time>
      </trkpt>
      <trkpt lat="45.21732" lon="0.45765">
        <ele>160.02214016169</ele>
        <time>2017-01-31T14:27:36Z</time>
      </trkpt>
      <trkpt lat="45.21726" lon="0.45758">
        <ele>156.02221932797</ele>
        <time>2017-01-31T14:27:43Z</time>
      </trkpt>
      <trkpt lat="45.21719" lon="0.45751">
        <ele>158.02230769913</ele>
        <time>2017-01-31T14:27:50Z</time>
      </trkpt>
      <trkpt lat="45.21713" lon="0.45743">
        <ele>157.02239346494</ele>
        <time>2017-01-31T14:27:59Z</time>
      </trkpt>
      <trkpt lat="45.21708" lon="0.45733">
        <ele>157.02248105103</ele>
        <time>2017-01-31T14:28:06Z</time>
      </trkpt>
      <trkpt lat="45.21701" lon="0.45726">
        <ele>156.02255854339</ele>
        <time>2017-01-31T14:28:12Z</time>
      </trkpt>
      <trkpt lat="45.21695" lon="0.45718">
        <ele>159.02264584697</ele>
        <time>2017-01-31T14:28:19Z</time>
      </trkpt>
      <trkpt lat="45.21687" lon="0.45712">
        <ele>162.02272762244</ele>
        <time>2017-01-31T14:28:28Z</time>
      </trkpt>
      <trkpt lat="45.2168" lon="0.45706">
        <ele>164.02281007237</ele>
        <time>2017-01-31T14:28:36Z</time>
      </trkpt>
      <trkpt lat="45.21674" lon="0.457">
        <ele>164.02288780868</ele>
        <time>2017-01-31T14:28:42Z</time>
      </trkpt>
      <trkpt lat="45.21669" lon="0.4569">
        <ele>161.02297112513</ele>
        <time>2017-01-31T14:28:49Z</time>
      </trkpt>
      <trkpt lat="45.21664" lon="0.45682">
        <ele>163.02305205707</ele>
        <time>2017-01-31T14:28:55Z</time>
      </trkpt>
      <trkpt lat="45.21659" lon="0.45672">
        <ele>159.02313372432</ele>
        <time>2017-01-31T14:29:02Z</time>
      </trkpt>
      <trkpt lat="45.21653" lon="0.45665">
        <ele>159.02321869644</ele>
        <time>2017-01-31T14:29:08Z</time>
      </trkpt>
      <trkpt lat="45.2165" lon="0.45653">
        <ele>157.02329765781</ele>
        <time>2017-01-31T14:29:19Z</time>
      </trkpt>
      <trkpt lat="45.21644" lon="0.45647">
        <ele>157.02337579279</ele>
        <time>2017-01-31T14:29:25Z</time>
      </trkpt>
      <trkpt lat="45.21637" lon="0.45642">
        <ele>161.02345258756</ele>
        <time>2017-01-31T14:29:30Z</time>
      </trkpt>
      <trkpt lat="45.21629" lon="0.45636">
        <ele>163.02353867871</ele>
        <time>2017-01-31T14:29:37Z</time>
      </trkpt>
      <trkpt lat="45.21624" lon="0.45626">
        <ele>162.02362977555</ele>
        <time>2017-01-31T14:29:44Z</time>
      </trkpt>
      <trkpt lat="45.21616" lon="0.45622">
        <ele>161.02370739003</ele>
        <time>2017-01-31T14:29:51Z</time>
      </trkpt>
      <trkpt lat="45.2161" lon="0.45613">
        <ele>162.02379420157</ele>
        <time>2017-01-31T14:31:03Z</time>
      </trkpt>
      <trkpt lat="45.21612" lon="0.45602">
        <ele>163.02384444621</ele>
        <time>2017-01-31T14:31:11Z</time>
      </trkpt>
      <trkpt lat="45.21617" lon="0.45592">
        <ele>162.0238590837</ele>
        <time>2017-01-31T14:31:18Z</time>
      </trkpt>
      <trkpt lat="45.21623" lon="0.45584">
        <ele>163.02385793859</ele>
        <time>2017-01-31T14:31:29Z</time>
      </trkpt>
      <trkpt lat="45.2163" lon="0.45578">
        <ele>163.02384330072</ele>
        <time>2017-01-31T14:31:39Z</time>
      </trkpt>
      <trkpt lat="45.21634" lon="0.4557">
        <ele>164.02386200408</ele>
        <time>2017-01-31T14:31:45Z</time>
      </trkpt>
      <trkpt lat="45.21639" lon="0.4556">
        <ele>163.02387271885</ele>
        <time>2017-01-31T14:31:52Z</time>
      </trkpt>
      <trkpt lat="45.21644" lon="0.4555">
        <ele>163.02389473624</ele>
        <time>2017-01-31T14:32:00Z</time>
      </trkpt>
      <trkpt lat="45.21651" lon="0.45542">
        <ele>167.02388880945</ele>
        <time>2017-01-31T14:32:08Z</time>
      </trkpt>
      <trkpt lat="45.21654" lon="0.45531">
        <ele>167.02392481841</ele>
        <time>2017-01-31T14:32:14Z</time>
      </trkpt>
      <trkpt lat="45.21658" lon="0.45521">
        <ele>164.02394616183</ele>
        <time>2017-01-31T14:32:23Z</time>
      </trkpt>
      <trkpt lat="45.21663" lon="0.45514">
        <ele>163.02395277579</ele>
        <time>2017-01-31T14:32:30Z</time>
      </trkpt>
      <trkpt lat="45.21667" lon="0.45503">
        <ele>169.02398516618</ele>
        <time>2017-01-31T14:32:38Z</time>
      </trkpt>
      <trkpt lat="45.21672" lon="0.45495">
        <ele>170.02399224728</ele>
        <time>2017-01-31T14:32:45Z</time>
      </trkpt>
      <trkpt lat="45.21676" lon="0.45484">
        <ele>169.02401699675</ele>
        <time>2017-01-31T14:32:51Z</time>
      </trkpt>
      <trkpt lat="45.2168" lon="0.45473">
        <ele>170.02405369815</ele>
        <time>2017-01-31T14:32:59Z</time>
      </trkpt>
      <trkpt lat="45.21682" lon="0.45462">
        <ele>171.02409259285</ele>
        <time>2017-01-31T14:33:06Z</time>
      </trkpt>
      <trkpt lat="45.21684" lon="0.4545">
        <ele>168.02414229877</ele>
        <time>2017-01-31T14:33:14Z</time>
      </trkpt>
      <trkpt lat="45.21689" lon="0.4544">
        <ele>170.02415773902</ele>
        <time>2017-01-31T14:33:22Z</time>
      </trkpt>
      <trkpt lat="45.21692" lon="0.4543">
        <ele>167.02418492703</ele>
        <time>2017-01-31T14:33:29Z</time>
      </trkpt>
      <trkpt lat="45.21697" lon="0.45419">
        <ele>169.02420974758</ele>
        <time>2017-01-31T14:33:36Z</time>
      </trkpt>
      <trkpt lat="45.217" lon="0.45409">
        <ele>164.02424379193</ele>
        <time>2017-01-31T14:33:44Z</time>
      </trkpt>
      <trkpt lat="45.21701" lon="0.45399">
        <ele>163.02428975055</ele>
        <time>2017-01-31T14:33:52Z</time>
      </trkpt>
      <trkpt lat="45.21703" lon="0.45387">
        <ele>163.02433294433</ele>
        <time>2017-01-31T14:33:59Z</time>
      </trkpt>
      <trkpt lat="45.21709" lon="0.45378">
        <ele>163.02433775064</ele>
        <time>2017-01-31T14:34:05Z</time>
      </trkpt>
      <trkpt lat="45.21714" lon="0.45368">
        <ele>163.02435707761</ele>
        <time>2017-01-31T14:34:11Z</time>
      </trkpt>
      <trkpt lat="45.21717" lon="0.45357">
        <ele>162.0243897842</ele>
        <time>2017-01-31T14:34:20Z</time>
      </trkpt>
      <trkpt lat="45.2172" lon="0.45345">
        <ele>160.02442731083</ele>
        <time>2017-01-31T14:34:27Z</time>
      </trkpt>
      <trkpt lat="45.21723" lon="0.45334">
        <ele>158.02446275559</ele>
        <time>2017-01-31T14:34:35Z</time>
      </trkpt>
      <trkpt lat="45.21727" lon="0.45324">
        <ele>158.02448436657</ele>
        <time>2017-01-31T14:34:43Z</time>
      </trkpt>
      <trkpt lat="45.21733" lon="0.45316">
        <ele>159.02448293599</ele>
        <time>2017-01-31T14:34:52Z</time>
      </trkpt>
      <trkpt lat="45.21742" lon="0.4531">
        <ele>160.02445034056</ele>
        <time>2017-01-31T14:34:56Z</time>
      </trkpt>
      <trkpt lat="45.21746" lon="0.45302">
        <ele>157.02445777259</ele>
        <time>2017-01-31T14:35:07Z</time>
      </trkpt>
      <trkpt lat="45.21754" lon="0.45298">
        <ele>157.0244247535</ele>
        <time>2017-01-31T14:35:13Z</time>
      </trkpt>
      <trkpt lat="45.21761" lon="0.45293">
        <ele>155.02439096903</ele>
        <time>2017-01-31T14:35:18Z</time>
      </trkpt>
      <trkpt lat="45.21769" lon="0.45288">
        <ele>156.02435881642</ele>
        <time>2017-01-31T14:35:26Z</time>
      </trkpt>
      <trkpt lat="45.21775" lon="0.45283">
        <ele>157.02434369173</ele>
        <time>2017-01-31T14:35:32Z</time>
      </trkpt>
      <trkpt lat="45.2178" lon="0.45276">
        <ele>158.02433919132</ele>
        <time>2017-01-31T14:35:38Z</time>
      </trkpt>
      <trkpt lat="45.21789" lon="0.45271">
        <ele>156.02429803307</ele>
        <time>2017-01-31T14:35:44Z</time>
      </trkpt>
      <trkpt lat="45.21795" lon="0.45266">
        <ele>158.0242739578</ele>
        <time>2017-01-31T14:35:54Z</time>
      </trkpt>
      <trkpt lat="45.21803" lon="0.45261">
        <ele>156.02424514811</ele>
        <time>2017-01-31T14:36:02Z</time>
      </trkpt>
      <trkpt lat="45.21811" lon="0.45256">
        <ele>156.02421082747</ele>
        <time>2017-01-31T14:36:11Z</time>
      </trkpt>
      <trkpt lat="45.21815" lon="0.45245">
        <ele>157.02423161397</ele>
        <time>2017-01-31T14:36:16Z</time>
      </trkpt>
      <trkpt lat="45.21821" lon="0.45237">
        <ele>157.02422384342</ele>
        <time>2017-01-31T14:36:24Z</time>
      </trkpt>
      <trkpt lat="45.21826" lon="0.45227">
        <ele>154.02423679402</ele>
        <time>2017-01-31T14:36:32Z</time>
      </trkpt>
      <trkpt lat="45.21832" lon="0.45219">
        <ele>153.02423187609</ele>
        <time>2017-01-31T14:36:39Z</time>
      </trkpt>
      <trkpt lat="45.21835" lon="0.45207">
        <ele>152.02427102435</ele>
        <time>2017-01-31T14:36:52Z</time>
      </trkpt>
      <trkpt lat="45.21843" lon="0.45201">
        <ele>151.02424216169</ele>
        <time>2017-01-31T14:37:00Z</time>
      </trkpt>
      <trkpt lat="45.21847" lon="0.45192">
        <ele>149.02425615308</ele>
        <time>2017-01-31T14:37:08Z</time>
      </trkpt>
      <trkpt lat="45.21851" lon="0.45182">
        <ele>151.02427575039</ele>
        <time>2017-01-31T14:37:14Z</time>
      </trkpt>
      <trkpt lat="45.21858" lon="0.45175">
        <ele>150.02425363548</ele>
        <time>2017-01-31T14:37:22Z</time>
      </trkpt>
      <trkpt lat="45.21865" lon="0.45167">
        <ele>154.02424720144</ele>
        <time>2017-01-31T14:37:31Z</time>
      </trkpt>
      <trkpt lat="45.2187" lon="0.45157">
        <ele>156.02425553538</ele>
        <time>2017-01-31T14:37:39Z</time>
      </trkpt>
      <trkpt lat="45.21875" lon="0.45148">
        <ele>156.02425867555</ele>
        <time>2017-01-31T14:37:46Z</time>
      </trkpt>
      <trkpt lat="45.21882" lon="0.45141">
        <ele>153.02423960662</ele>
        <time>2017-01-31T14:37:54Z</time>
      </trkpt>
      <trkpt lat="45.21887" lon="0.45133">
        <ele>154.02423734235</ele>
        <time>2017-01-31T14:38:01Z</time>
      </trkpt>
      <trkpt lat="45.21894" lon="0.45125">
        <ele>152.02422768202</ele>
        <time>2017-01-31T14:38:08Z</time>
      </trkpt>
      <trkpt lat="45.21898" lon="0.45116">
        <ele>152.0242435147</ele>
        <time>2017-01-31T14:38:15Z</time>
      </trkpt>
      <trkpt lat="45.21905" lon="0.4511">
        <ele>152.02421556374</ele>
        <time>2017-01-31T14:38:22Z</time>
      </trkpt>
      <trkpt lat="45.21913" lon="0.45106">
        <ele>151.02417236075</ele>
        <time>2017-01-31T14:38:29Z</time>
      </trkpt>
      <trkpt lat="45.21919" lon="0.45097">
        <ele>151.02417292891</ele>
        <time>2017-01-31T14:38:37Z</time>
      </trkpt>
      <trkpt lat="45.21926" lon="0.45091">
        <ele>152.02414273449</ele>
        <time>2017-01-31T14:38:44Z</time>
      </trkpt>
      <trkpt lat="45.21933" lon="0.45083">
        <ele>153.02413139254</ele>
        <time>2017-01-31T14:38:53Z</time>
      </trkpt>
      <trkpt lat="45.2194" lon="0.45079">
        <ele>149.0240933017</ele>
        <time>2017-01-31T14:39:00Z</time>
      </trkpt>
      <trkpt lat="45.21947" lon="0.45072">
        <ele>145.02407294191</ele>
        <time>2017-01-31T14:39:06Z</time>
      </trkpt>
      <trkpt lat="45.21952" lon="0.45064">
        <ele>146.0240694541</ele>
        <time>2017-01-31T14:39:12Z</time>
      </trkpt>
      <trkpt lat="45.21959" lon="0.45057">
        <ele>146.02405292455</ele>
        <time>2017-01-31T14:39:20Z</time>
      </trkpt>
      <trkpt lat="45.21966" lon="0.45049">
        <ele>145.02403619425</ele>
        <time>2017-01-31T14:39:28Z</time>
      </trkpt>
      <trkpt lat="45.21973" lon="0.45044">
        <ele>144.02400815171</ele>
        <time>2017-01-31T14:39:35Z</time>
      </trkpt>
      <trkpt lat="45.2198" lon="0.45037">
        <ele>142.02397903639</ele>
        <time>2017-01-31T14:39:43Z</time>
      </trkpt>
      <trkpt lat="45.21988" lon="0.45033">
        <ele>138.02393562502</ele>
        <time>2017-01-31T14:39:50Z</time>
      </trkpt>
      <trkpt lat="45.21995" lon="0.45028">
        <ele>138.02390473814</ele>
        <time>2017-01-31T14:39:56Z</time>
      </trkpt>
      <trkpt lat="45.22002" lon="0.4502">
        <ele>141.02388818516</ele>
        <time>2017-01-31T14:40:04Z</time>
      </trkpt>
      <trkpt lat="45.2201" lon="0.45018">
        <ele>143.02383365142</ele>
        <time>2017-01-31T14:40:12Z</time>
      </trkpt>
      <trkpt lat="45.22016" lon="0.4501">
        <ele>143.02382490912</ele>
        <time>2017-01-31T14:40:19Z</time>
      </trkpt>
      <trkpt lat="45.22024" lon="0.45007">
        <ele>144.02377106146</ele>
        <time>2017-01-31T14:40:26Z</time>
      </trkpt>
      <trkpt lat="45.22032" lon="0.45004">
        <ele>143.02372266984</ele>
        <time>2017-01-31T14:40:33Z</time>
      </trkpt>
      <trkpt lat="45.2204" lon="0.44997">
        <ele>143.02369352448</ele>
        <time>2017-01-31T14:40:42Z</time>
      </trkpt>
      <trkpt lat="45.22048" lon="0.44994">
        <ele>140.02364155262</ele>
        <time>2017-01-31T14:40:48Z</time>
      </trkpt>
      <trkpt lat="45.2205" lon="0.44982">
        <ele>143.02368569421</ele>
        <time>2017-01-31T14:41:45Z</time>
      </trkpt>
      <trkpt lat="45.22057" lon="0.44974">
        <ele>142.02366737467</ele>
        <time>2017-01-31T14:41:53Z</time>
      </trkpt>
      <trkpt lat="45.22064" lon="0.44971">
        <ele>142.02362578643</ele>
        <time>2017-01-31T14:41:59Z</time>
      </trkpt>
      <trkpt lat="45.22072" lon="0.44969">
        <ele>144.02357334985</ele>
        <time>2017-01-31T14:42:08Z</time>
      </trkpt>
      <trkpt lat="45.22078" lon="0.44962">
        <ele>143.02355333939</ele>
        <time>2017-01-31T14:42:17Z</time>
      </trkpt>
      <trkpt lat="45.22086" lon="0.44959">
        <ele>144.02350220876</ele>
        <time>2017-01-31T14:42:23Z</time>
      </trkpt>
      <trkpt lat="45.22095" lon="0.44957">
        <ele>142.0234454174</ele>
        <time>2017-01-31T14:42:30Z</time>
      </trkpt>
      <trkpt lat="45.22102" lon="0.44951">
        <ele>139.02341567979</ele>
        <time>2017-01-31T14:42:36Z</time>
      </trkpt>
      <trkpt lat="45.22109" lon="0.44951">
        <ele>137.02335440306</ele>
        <time>2017-01-31T14:42:42Z</time>
      </trkpt>
      <trkpt lat="45.22117" lon="0.44951">
        <ele>134.02328886035</ele>
        <time>2017-01-31T14:42:50Z</time>
      </trkpt>
      <trkpt lat="45.22126" lon="0.4495">
        <ele>133.02322237803</ele>
        <time>2017-01-31T14:42:58Z</time>
      </trkpt>
      <trkpt lat="45.22132" lon="0.44943">
        <ele>137.02320215868</ele>
        <time>2017-01-31T14:43:05Z</time>
      </trkpt>
      <trkpt lat="45.2214" lon="0.44942">
        <ele>136.02314334677</ele>
        <time>2017-01-31T14:43:12Z</time>
      </trkpt>
      <trkpt lat="45.22148" lon="0.44937">
        <ele>134.02309876972</ele>
        <time>2017-01-31T14:43:20Z</time>
      </trkpt>
      <trkpt lat="45.22156" lon="0.44932">
        <ele>132.0230611897</ele>
        <time>2017-01-31T14:43:28Z</time>
      </trkpt>
      <trkpt lat="45.22164" lon="0.44932">
        <ele>130.02299792699</ele>
        <time>2017-01-31T14:43:34Z</time>
      </trkpt>
      <trkpt lat="45.22172" lon="0.44934">
        <ele>130.02292492624</ele>
        <time>2017-01-31T14:43:40Z</time>
      </trkpt>
      <trkpt lat="45.2218" lon="0.44929">
        <ele>130.02288112385</ele>
        <time>2017-01-31T14:43:45Z</time>
      </trkpt>
      <trkpt lat="45.22188" lon="0.44927">
        <ele>131.02282737131</ele>
        <time>2017-01-31T14:43:51Z</time>
      </trkpt>
      <trkpt lat="45.22196" lon="0.44924">
        <ele>130.02277354659</ele>
        <time>2017-01-31T14:43:58Z</time>
      </trkpt>
      <trkpt lat="45.22203" lon="0.44921">
        <ele>130.02273094923</ele>
        <time>2017-01-31T14:44:05Z</time>
      </trkpt>
      <trkpt lat="45.22211" lon="0.4492">
        <ele>127.02267182071</ele>
        <time>2017-01-31T14:44:11Z</time>
      </trkpt>
      <trkpt lat="45.22217" lon="0.44916">
        <ele>126.02263638147</ele>
        <time>2017-01-31T14:44:25Z</time>
      </trkpt>
      <trkpt lat="45.22228" lon="0.44912">
        <ele>124.02256526342</ele>
        <time>2017-01-31T14:44:30Z</time>
      </trkpt>
      <trkpt lat="45.22236" lon="0.4491">
        <ele>122.02250795878</ele>
        <time>2017-01-31T14:44:35Z</time>
      </trkpt>
      <trkpt lat="45.22245" lon="0.44904">
        <ele>119.02246327864</ele>
        <time>2017-01-31T14:44:40Z</time>
      </trkpt>
      <trkpt lat="45.22252" lon="0.44897">
        <ele>116.02243970307</ele>
        <time>2017-01-31T14:44:49Z</time>
      </trkpt>
      <trkpt lat="45.2226" lon="0.44892">
        <ele>116.02240007336</ele>
        <time>2017-01-31T14:44:56Z</time>
      </trkpt>
      <trkpt lat="45.22266" lon="0.44884">
        <ele>121.02238110217</ele>
        <time>2017-01-31T14:45:04Z</time>
      </trkpt>
      <trkpt lat="45.22273" lon="0.44879">
        <ele>120.02233944855</ele>
        <time>2017-01-31T14:45:11Z</time>
      </trkpt>
      <trkpt lat="45.22277" lon="0.4487">
        <ele>120.02234714744</ele>
        <time>2017-01-31T14:45:16Z</time>
      </trkpt>
      <trkpt lat="45.22282" lon="0.44858">
        <ele>119.02236331251</ele>
        <time>2017-01-31T14:45:21Z</time>
      </trkpt>
      <trkpt lat="45.22286" lon="0.44848">
        <ele>118.02237281163</ele>
        <time>2017-01-31T14:45:27Z</time>
      </trkpt>
      <trkpt lat="45.22293" lon="0.44842">
        <ele>118.02234462668</ele>
        <time>2017-01-31T14:45:33Z</time>
      </trkpt>
      <trkpt lat="45.22301" lon="0.44838">
        <ele>115.02229410632</ele>
        <time>2017-01-31T14:45:40Z</time>
      </trkpt>
      <trkpt lat="45.22309" lon="0.44836">
        <ele>112.0222366254</ele>
        <time>2017-01-31T14:45:46Z</time>
      </trkpt>
      <trkpt lat="45.22317" lon="0.4483">
        <ele>117.02219485397</ele>
        <time>2017-01-31T14:45:51Z</time>
      </trkpt>
      <trkpt lat="45.22325" lon="0.44829">
        <ele>115.02213216652</ele>
        <time>2017-01-31T14:45:58Z</time>
      </trkpt>
      <trkpt lat="45.22333" lon="0.44826">
        <ele>115.02207319312</ele>
        <time>2017-01-31T14:46:05Z</time>
      </trkpt>
      <trkpt lat="45.22342" lon="0.44825">
        <ele>111.02200839639</ele>
        <time>2017-01-31T14:46:13Z</time>
      </trkpt>
      <trkpt lat="45.22349" lon="0.44833">
        <ele>106.02191767735</ele>
        <time>2017-01-31T14:46:29Z</time>
      </trkpt>
      <trkpt lat="45.22357" lon="0.44827">
        <ele>103.0218803823</ele>
        <time>2017-01-31T14:46:37Z</time>
      </trkpt>
      <trkpt lat="45.22364" lon="0.44821">
        <ele>106.02184207905</ele>
        <time>2017-01-31T14:46:52Z</time>
      </trkpt>
      <trkpt lat="45.2237" lon="0.44816">
        <ele>105.02181638776</ele>
        <time>2017-01-31T14:47:00Z</time>
      </trkpt>
      <trkpt lat="45.22374" lon="0.44805">
        <ele>103.02182651936</ele>
        <time>2017-01-31T14:47:05Z</time>
      </trkpt>
      <trkpt lat="45.22382" lon="0.44798">
        <ele>105.0217937412</ele>
        <time>2017-01-31T14:47:16Z</time>
      </trkpt>
      <trkpt lat="45.22388" lon="0.44793">
        <ele>105.02176373053</ele>
        <time>2017-01-31T14:47:22Z</time>
      </trkpt>
      <trkpt lat="45.22393" lon="0.44791">
        <ele>102.02172795326</ele>
        <time>2017-01-31T14:47:26Z</time>
      </trkpt>
      <trkpt lat="45.22401" lon="0.44785">
        <ele>100.02168501352</ele>
        <time>2017-01-31T14:47:30Z</time>
      </trkpt>
      <trkpt lat="45.2241" lon="0.44784">
        <ele>101.02161744389</ele>
        <time>2017-01-31T14:47:36Z</time>
      </trkpt>
      <trkpt lat="45.22416" lon="0.44782">
        <ele>101.02157268761</ele>
        <time>2017-01-31T14:47:42Z</time>
      </trkpt>
      <trkpt lat="45.22423" lon="0.44778">
        <ele>102.02153419214</ele>
        <time>2017-01-31T14:47:48Z</time>
      </trkpt>
      <trkpt lat="45.22429" lon="0.4477">
        <ele>106.02151624319</ele>
        <time>2017-01-31T14:47:55Z</time>
      </trkpt>
      <trkpt lat="45.22437" lon="0.44767">
        <ele>106.02145988138</ele>
        <time>2017-01-31T14:48:01Z</time>
      </trkpt>
      <trkpt lat="45.22445" lon="0.44762">
        <ele>108.02141207018</ele>
        <time>2017-01-31T14:48:09Z</time>
      </trkpt>
      <trkpt lat="45.22453" lon="0.44765">
        <ele>105.02133240563</ele>
        <time>2017-01-31T14:48:15Z</time>
      </trkpt>
      <trkpt lat="45.22462" lon="0.44766">
        <ele>105.02125604698</ele>
        <time>2017-01-31T14:48:21Z</time>
      </trkpt>
      <trkpt lat="45.22469" lon="0.44765">
        <ele>107.0212009973</ele>
        <time>2017-01-31T14:48:27Z</time>
      </trkpt>
      <trkpt lat="45.22476" lon="0.44769">
        <ele>104.02112325817</ele>
        <time>2017-01-31T14:48:55Z</time>
      </trkpt>
      <trkpt lat="45.22484" lon="0.44763">
        <ele>105.02107760896</ele>
        <time>2017-01-31T14:49:14Z</time>
      </trkpt>
      <trkpt lat="45.22488" lon="0.44753">
        <ele>105.02108478103</ele>
        <time>2017-01-31T14:49:23Z</time>
      </trkpt>
      <trkpt lat="45.22492" lon="0.44744">
        <ele>104.02109417629</ele>
        <time>2017-01-31T14:49:31Z</time>
      </trkpt>
      <trkpt lat="45.22499" lon="0.44738">
        <ele>108.02105808778</ele>
        <time>2017-01-31T14:49:39Z</time>
      </trkpt>
      <trkpt lat="45.22506" lon="0.44731">
        <ele>107.0210243057</ele>
        <time>2017-01-31T14:49:47Z</time>
      </trkpt>
      <trkpt lat="45.22514" lon="0.44725">
        <ele>110.02098476475</ele>
        <time>2017-01-31T14:50:01Z</time>
      </trkpt>
      <trkpt lat="45.22522" lon="0.44723">
        <ele>111.02092190955</ele>
        <time>2017-01-31T14:50:08Z</time>
      </trkpt>
      <trkpt lat="45.22528" lon="0.44715">
        <ele>112.02090044608</ele>
        <time>2017-01-31T14:50:16Z</time>
      </trkpt>
      <trkpt lat="45.22536" lon="0.4471">
        <ele>114.02085561441</ele>
        <time>2017-01-31T14:50:25Z</time>
      </trkpt>
      <trkpt lat="45.22544" lon="0.44704">
        <ele>117.02081356263</ele>
        <time>2017-01-31T14:50:37Z</time>
      </trkpt>
      <trkpt lat="45.22548" lon="0.44693">
        <ele>123.0208179363</ele>
        <time>2017-01-31T14:50:56Z</time>
      </trkpt>
      <trkpt lat="45.22552" lon="0.44684">
        <ele>123.02082403475</ele>
        <time>2017-01-31T14:51:03Z</time>
      </trkpt>
      <trkpt lat="45.22557" lon="0.44677">
        <ele>128.02080332685</ele>
        <time>2017-01-31T14:52:02Z</time>
      </trkpt>
      <trkpt lat="45.22563" lon="0.44672">
        <ele>128.02078018696</ele>
        <time>2017-01-31T14:52:06Z</time>
      </trkpt>
      <trkpt lat="45.2257" lon="0.44664">
        <ele>125.02074438163</ele>
        <time>2017-01-31T14:52:16Z</time>
      </trkpt>
      <trkpt lat="45.22577" lon="0.44658">
        <ele>123.02071474986</ele>
        <time>2017-01-31T14:52:32Z</time>
      </trkpt>
      <trkpt lat="45.22583" lon="0.44649">
        <ele>126.02069177424</ele>
        <time>2017-01-31T14:52:40Z</time>
      </trkpt>
      <trkpt lat="45.22587" lon="0.44638">
        <ele>127.02070154566</ele>
        <time>2017-01-31T14:52:49Z</time>
      </trkpt>
      <trkpt lat="45.22593" lon="0.44629">
        <ele>127.02068954146</ele>
        <time>2017-01-31T14:53:02Z</time>
      </trkpt>
      <trkpt lat="45.22601" lon="0.44634">
        <ele>126.02060181452</ele>
        <time>2017-01-31T14:53:35Z</time>
      </trkpt>
      <trkpt lat="45.22608" lon="0.44629">
        <ele>129.02055731354</ele>
        <time>2017-01-31T14:53:43Z</time>
      </trkpt>
      <trkpt lat="45.22616" lon="0.44631">
        <ele>128.0204759848</ele>
        <time>2017-01-31T14:53:50Z</time>
      </trkpt>
      <trkpt lat="45.22624" lon="0.44627">
        <ele>129.02042341939</ele>
        <time>2017-01-31T14:53:57Z</time>
      </trkpt>
      <trkpt lat="45.22631" lon="0.44636">
        <ele>128.02033405112</ele>
        <time>2017-01-31T14:54:05Z</time>
      </trkpt>
      <trkpt lat="45.22638" lon="0.44641">
        <ele>129.02025260599</ele>
        <time>2017-01-31T14:54:12Z</time>
      </trkpt>
      <trkpt lat="45.22646" lon="0.44636">
        <ele>132.020199381</ele>
        <time>2017-01-31T14:54:19Z</time>
      </trkpt>
      <trkpt lat="45.22655" lon="0.44637">
        <ele>131.02012430435</ele>
        <time>2017-01-31T14:54:29Z</time>
      </trkpt>
      <trkpt lat="45.22663" lon="0.44638">
        <ele>132.0200492657</ele>
        <time>2017-01-31T14:54:37Z</time>
      </trkpt>
      <trkpt lat="45.22672" lon="0.44639">
        <ele>132.01997031612</ele>
        <time>2017-01-31T14:54:46Z</time>
      </trkpt>
      <trkpt lat="45.2268" lon="0.44637">
        <ele>132.01990407732</ele>
        <time>2017-01-31T14:54:55Z</time>
      </trkpt>
      <trkpt lat="45.22688" lon="0.44643">
        <ele>129.01981801839</ele>
        <time>2017-01-31T14:55:03Z</time>
      </trkpt>
      <trkpt lat="45.22696" lon="0.44641">
        <ele>125.01975209584</ele>
        <time>2017-01-31T14:55:12Z</time>
      </trkpt>
      <trkpt lat="45.22704" lon="0.44643">
        <ele>128.01967587894</ele>
        <time>2017-01-31T14:55:21Z</time>
      </trkpt>
      <trkpt lat="45.22713" lon="0.44644">
        <ele>131.01959649015</ele>
        <time>2017-01-31T14:55:29Z</time>
      </trkpt>
      <trkpt lat="45.22721" lon="0.44644">
        <ele>131.01952739432</ele>
        <time>2017-01-31T14:55:38Z</time>
      </trkpt>
      <trkpt lat="45.22729" lon="0.44649">
        <ele>132.01944014468</ele>
        <time>2017-01-31T14:55:47Z</time>
      </trkpt>
      <trkpt lat="45.22738" lon="0.44651">
        <ele>134.01936159064</ele>
        <time>2017-01-31T14:55:55Z</time>
      </trkpt>
      <trkpt lat="45.22743" lon="0.44659">
        <ele>131.01928673842</ele>
        <time>2017-01-31T14:56:02Z</time>
      </trkpt>
      <trkpt lat="45.22751" lon="0.44656">
        <ele>127.01922896496</ele>
        <time>2017-01-31T14:56:11Z</time>
      </trkpt>
      <trkpt lat="45.22759" lon="0.44651">
        <ele>126.01917877809</ele>
        <time>2017-01-31T14:56:18Z</time>
      </trkpt>
      <trkpt lat="45.22766" lon="0.44643">
        <ele>124.01914461842</ele>
        <time>2017-01-31T14:56:25Z</time>
      </trkpt>
      <trkpt lat="45.22772" lon="0.44636">
        <ele>125.0191230891</ele>
        <time>2017-01-31T14:56:30Z</time>
      </trkpt>
      <trkpt lat="45.2278" lon="0.44635">
        <ele>122.01905286701</ele>
        <time>2017-01-31T14:56:38Z</time>
      </trkpt>
      <trkpt lat="45.22788" lon="0.44633">
        <ele>123.01899375528</ele>
        <time>2017-01-31T14:56:45Z</time>
      </trkpt>
      <trkpt lat="45.22796" lon="0.44628">
        <ele>123.01894297446</ele>
        <time>2017-01-31T14:56:54Z</time>
      </trkpt>
      <trkpt lat="45.22802" lon="0.44621">
        <ele>127.01891523836</ele>
        <time>2017-01-31T14:57:01Z</time>
      </trkpt>
      <trkpt lat="45.22809" lon="0.44616">
        <ele>126.01887172184</ele>
        <time>2017-01-31T14:57:07Z</time>
      </trkpt>
      <trkpt lat="45.22818" lon="0.44615">
        <ele>123.01880367898</ele>
        <time>2017-01-31T14:57:15Z</time>
      </trkpt>
      <trkpt lat="45.22826" lon="0.44616">
        <ele>124.01872623082</ele>
        <time>2017-01-31T14:57:25Z</time>
      </trkpt>
      <trkpt lat="45.22835" lon="0.44616">
        <ele>119.01865510226</ele>
        <time>2017-01-31T14:57:33Z</time>
      </trkpt>
      <trkpt lat="45.22843" lon="0.44612">
        <ele>126.0185969697</ele>
        <time>2017-01-31T14:57:46Z</time>
      </trkpt>
      <trkpt lat="45.22851" lon="0.44606">
        <ele>122.01854892372</ele>
        <time>2017-01-31T14:57:57Z</time>
      </trkpt>
      <trkpt lat="45.22858" lon="0.44601">
        <ele>124.01850097704</ele>
        <time>2017-01-31T14:58:05Z</time>
      </trkpt>
      <trkpt lat="45.22866" lon="0.44599">
        <ele>122.01844012716</ele>
        <time>2017-01-31T14:58:11Z</time>
      </trkpt>
      <trkpt lat="45.22871" lon="0.44613">
        <ele>117.01834886219</ele>
        <time>2017-01-31T14:58:16Z</time>
      </trkpt>
      <trkpt lat="45.22877" lon="0.44621">
        <ele>115.01826865165</ele>
        <time>2017-01-31T14:58:21Z</time>
      </trkpt>
      <trkpt lat="45.22876" lon="0.44633">
        <ele>115.01823634682</ele>
        <time>2017-01-31T14:58:29Z</time>
      </trkpt>
      <trkpt lat="45.22879" lon="0.44645">
        <ele>116.01817010287</ele>
        <time>2017-01-31T14:58:38Z</time>
      </trkpt>
      <trkpt lat="45.22883" lon="0.44655">
        <ele>118.01810856254</ele>
        <time>2017-01-31T14:58:45Z</time>
      </trkpt>
      <trkpt lat="45.22876" lon="0.44652">
        <ele>117.01817509214</ele>
        <time>2017-01-31T14:59:14Z</time>
      </trkpt>
      <trkpt lat="45.22874" lon="0.44641">
        <ele>115.01822885448</ele>
        <time>2017-01-31T14:59:19Z</time>
      </trkpt>
      <trkpt lat="45.22871" lon="0.44629">
        <ele>115.01829585673</ele>
        <time>2017-01-31T14:59:25Z</time>
      </trkpt>
      <trkpt lat="45.22874" lon="0.44617">
        <ele>115.01830839479</ele>
        <time>2017-01-31T14:59:30Z</time>
      </trkpt>
      <trkpt lat="45.22879" lon="0.44609">
        <ele>116.01829324503</ele>
        <time>2017-01-31T14:59:36Z</time>
      </trkpt>
      <trkpt lat="45.22887" lon="0.44607">
        <ele>116.01823213322</ele>
        <time>2017-01-31T14:59:41Z</time>
      </trkpt>
      <trkpt lat="45.22894" lon="0.44597">
        <ele>118.01820855858</ele>
        <time>2017-01-31T14:59:46Z</time>
      </trkpt>
      <trkpt lat="45.22902" lon="0.44593">
        <ele>116.01815410151</ele>
        <time>2017-01-31T14:59:52Z</time>
      </trkpt>
      <trkpt lat="45.22909" lon="0.44588">
        <ele>118.01810576931</ele>
        <time>2017-01-31T15:00:01Z</time>
      </trkpt>
      <trkpt lat="45.22916" lon="0.44588">
        <ele>114.01804417709</ele>
        <time>2017-01-31T15:00:14Z</time>
      </trkpt>
      <trkpt lat="45.22924" lon="0.44582">
        <ele>109.01799548782</ele>
        <time>2017-01-31T15:00:20Z</time>
      </trkpt>
      <trkpt lat="45.22929" lon="0.44576">
        <ele>113.01797126127</ele>
        <time>2017-01-31T15:00:25Z</time>
      </trkpt>
      <trkpt lat="45.22936" lon="0.44569">
        <ele>118.01793781251</ele>
        <time>2017-01-31T15:00:29Z</time>
      </trkpt>
      <trkpt lat="45.2293" lon="0.44561">
        <ele>123.01801377268</ele>
        <time>2017-01-31T15:01:24Z</time>
      </trkpt>
      <trkpt lat="45.22926" lon="0.44549">
        <ele>122.01808556159</ele>
        <time>2017-01-31T15:01:36Z</time>
      </trkpt>
      <trkpt lat="45.22928" lon="0.44538">
        <ele>120.01810495172</ele>
        <time>2017-01-31T15:01:48Z</time>
      </trkpt>
      <trkpt lat="45.22926" lon="0.44528">
        <ele>115.01816120526</ele>
        <time>2017-01-31T15:01:55Z</time>
      </trkpt>
      <trkpt lat="45.22923" lon="0.44518">
        <ele>117.01821738497</ele>
        <time>2017-01-31T15:02:02Z</time>
      </trkpt>
      <trkpt lat="45.22928" lon="0.44505">
        <ele>116.01822225999</ele>
        <time>2017-01-31T15:02:07Z</time>
      </trkpt>
      <trkpt lat="45.2292" lon="0.44499">
        <ele>118.01830892475</ele>
        <time>2017-01-31T15:02:14Z</time>
      </trkpt>
      <trkpt lat="45.22918" lon="0.44491">
        <ele>116.01835154126</ele>
        <time>2017-01-31T15:02:20Z</time>
      </trkpt>
      <trkpt lat="45.22914" lon="0.44477">
        <ele>113.01843001301</ele>
        <time>2017-01-31T15:02:24Z</time>
      </trkpt>
      <trkpt lat="45.22924" lon="0.44466">
        <ele>111.01838479522</ele>
        <time>2017-01-31T15:02:29Z</time>
      </trkpt>
      <trkpt lat="45.22929" lon="0.44458">
        <ele>109.01836049672</ele>
        <time>2017-01-31T15:02:38Z</time>
      </trkpt>
      <trkpt lat="45.22937" lon="0.44453">
        <ele>111.01831001541</ele>
        <time>2017-01-31T15:02:44Z</time>
      </trkpt>
      <trkpt lat="45.22944" lon="0.44447">
        <ele>111.01827007692</ele>
        <time>2017-01-31T15:02:51Z</time>
      </trkpt>
      <trkpt lat="45.22952" lon="0.44441">
        <ele>112.01821997025</ele>
        <time>2017-01-31T15:02:58Z</time>
      </trkpt>
      <trkpt lat="45.22959" lon="0.44434">
        <ele>114.01817654275</ele>
        <time>2017-01-31T15:03:08Z</time>
      </trkpt>
      <trkpt lat="45.22966" lon="0.44429">
        <ele>116.01812762139</ele>
        <time>2017-01-31T15:03:20Z</time>
      </trkpt>
      <trkpt lat="45.22972" lon="0.44423">
        <ele>118.01809674843</ele>
        <time>2017-01-31T15:03:34Z</time>
      </trkpt>
      <trkpt lat="45.22977" lon="0.44412">
        <ele>118.01808713627</ele>
        <time>2017-01-31T15:03:43Z</time>
      </trkpt>
      <trkpt lat="45.22983" lon="0.44403">
        <ele>115.01806489027</ele>
        <time>2017-01-31T15:03:53Z</time>
      </trkpt>
      <trkpt lat="45.2299" lon="0.44397">
        <ele>114.01801929763</ele>
        <time>2017-01-31T15:04:03Z</time>
      </trkpt>
      <trkpt lat="45.22997" lon="0.44389">
        <ele>118.01798073584</ele>
        <time>2017-01-31T15:04:42Z</time>
      </trkpt>
      <trkpt lat="45.23004" lon="0.44382">
        <ele>121.0179427078</ele>
        <time>2017-01-31T15:04:54Z</time>
      </trkpt>
      <trkpt lat="45.23005" lon="0.44369">
        <ele>118.0179770955</ele>
        <time>2017-01-31T15:05:03Z</time>
      </trkpt>
      <trkpt lat="45.23012" lon="0.44365">
        <ele>120.01792056421</ele>
        <time>2017-01-31T15:05:09Z</time>
      </trkpt>
      <trkpt lat="45.2302" lon="0.44358">
        <ele>122.01787409516</ele>
        <time>2017-01-31T15:05:25Z</time>
      </trkpt>
      <trkpt lat="45.23027" lon="0.44351">
        <ele>124.01783688895</ele>
        <time>2017-01-31T15:05:36Z</time>
      </trkpt>
      <trkpt lat="45.23032" lon="0.44341">
        <ele>124.01782163254</ele>
        <time>2017-01-31T15:05:45Z</time>
      </trkpt>
      <trkpt lat="45.23039" lon="0.44334">
        <ele>124.01777708784</ele>
        <time>2017-01-31T15:05:59Z</time>
      </trkpt>
      <trkpt lat="45.23046" lon="0.44326">
        <ele>126.01774307653</ele>
        <time>2017-01-31T15:06:10Z</time>
      </trkpt>
      <trkpt lat="45.23052" lon="0.44317">
        <ele>130.01771699291</ele>
        <time>2017-01-31T15:06:24Z</time>
      </trkpt>
      <trkpt lat="45.23059" lon="0.44309">
        <ele>130.01767689688</ele>
        <time>2017-01-31T15:06:39Z</time>
      </trkpt>
      <trkpt lat="45.23067" lon="0.44307">
        <ele>132.01760576488</ele>
        <time>2017-01-31T15:06:52Z</time>
      </trkpt>
      <trkpt lat="45.23075" lon="0.44302">
        <ele>135.01755087794</ele>
        <time>2017-01-31T15:07:08Z</time>
      </trkpt>
      <trkpt lat="45.23083" lon="0.44298">
        <ele>136.01748829511</ele>
        <time>2017-01-31T15:07:22Z</time>
      </trkpt>
      <trkpt lat="45.23091" lon="0.44294">
        <ele>140.01742619534</ele>
        <time>2017-01-31T15:07:35Z</time>
      </trkpt>
      <trkpt lat="45.23098" lon="0.44297">
        <ele>142.01735136344</ele>
        <time>2017-01-31T15:07:43Z</time>
      </trkpt>
      <trkpt lat="45.23103" lon="0.44306">
        <ele>143.0172843667</ele>
        <time>2017-01-31T15:07:48Z</time>
      </trkpt>
      <trkpt lat="45.2311" lon="0.44313">
        <ele>141.01719711551</ele>
        <time>2017-01-31T15:07:53Z</time>
      </trkpt>
      <trkpt lat="45.23117" lon="0.44319">
        <ele>144.01711491959</ele>
        <time>2017-01-31T15:08:01Z</time>
      </trkpt>
      <trkpt lat="45.23124" lon="0.44313">
        <ele>144.01706701512</ele>
        <time>2017-01-31T15:08:16Z</time>
      </trkpt>
      <trkpt lat="45.23132" lon="0.44311">
        <ele>144.01699965274</ele>
        <time>2017-01-31T15:08:27Z</time>
      </trkpt>
      <trkpt lat="45.23132" lon="0.44297">
        <ele>144.01704906282</ele>
        <time>2017-01-31T15:08:31Z</time>
      </trkpt>
      <trkpt lat="45.23139" lon="0.44293">
        <ele>147.01699553145</ele>
        <time>2017-01-31T15:08:38Z</time>
      </trkpt>
      <trkpt lat="45.23147" lon="0.44297">
        <ele>146.01690585075</ele>
        <time>2017-01-31T15:08:53Z</time>
      </trkpt>
      <trkpt lat="45.23154" lon="0.44304">
        <ele>143.01682124569</ele>
        <time>2017-01-31T15:09:05Z</time>
      </trkpt>
      <trkpt lat="45.23148" lon="0.44298">
        <ele>141.01689500844</ele>
        <time>2017-01-31T15:09:50Z</time>
      </trkpt>
      <trkpt lat="45.23144" lon="0.44289">
        <ele>144.01695925272</ele>
        <time>2017-01-31T15:09:55Z</time>
      </trkpt>
      <trkpt lat="45.23141" lon="0.44278">
        <ele>147.01702538683</ele>
        <time>2017-01-31T15:10:00Z</time>
      </trkpt>
      <trkpt lat="45.23147" lon="0.4427">
        <ele>145.01698993562</ele>
        <time>2017-01-31T15:10:06Z</time>
      </trkpt>
      <trkpt lat="45.23154" lon="0.44263">
        <ele>145.01694391565</ele>
        <time>2017-01-31T15:10:21Z</time>
      </trkpt>
      <trkpt lat="45.23163" lon="0.44258">
        <ele>146.01688222455</ele>
        <time>2017-01-31T15:10:42Z</time>
      </trkpt>
      <trkpt lat="45.2317" lon="0.44252">
        <ele>146.01682692465</ele>
        <time>2017-01-31T15:11:10Z</time>
      </trkpt>
      <trkpt lat="45.23178" lon="0.44258">
        <ele>146.01673975969</ele>
        <time>2017-01-31T15:11:23Z</time>
      </trkpt>
      <trkpt lat="45.2318" lon="0.4427">
        <ele>147.01669117229</ele>
        <time>2017-01-31T15:11:40Z</time>
      </trkpt>
      <trkpt lat="45.23181" lon="0.44281">
        <ele>144.01664269764</ele>
        <time>2017-01-31T15:11:48Z</time>
      </trkpt>
      <trkpt lat="45.23186" lon="0.4429">
        <ele>145.01657166789</ele>
        <time>2017-01-31T15:11:56Z</time>
      </trkpt>
      <trkpt lat="45.2319" lon="0.443">
        <ele>145.01650343506</ele>
        <time>2017-01-31T15:12:12Z</time>
      </trkpt>
      <trkpt lat="45.23192" lon="0.44313">
        <ele>144.01645205413</ele>
        <time>2017-01-31T15:12:22Z</time>
      </trkpt>
      <trkpt lat="45.23198" lon="0.44322">
        <ele>142.01637604356</ele>
        <time>2017-01-31T15:12:30Z</time>
      </trkpt>
      <trkpt lat="45.23204" lon="0.44331">
        <ele>142.01629515973</ele>
        <time>2017-01-31T15:12:38Z</time>
      </trkpt>
      <trkpt lat="45.23205" lon="0.44342">
        <ele>144.016251264</ele>
        <time>2017-01-31T15:12:48Z</time>
      </trkpt>
      <trkpt lat="45.2321" lon="0.44353">
        <ele>144.01617495234</ele>
        <time>2017-01-31T15:12:55Z</time>
      </trkpt>
      <trkpt lat="45.23215" lon="0.44362">
        <ele>145.01610334031</ele>
        <time>2017-01-31T15:13:00Z</time>
      </trkpt>
      <trkpt lat="45.23216" lon="0.44375">
        <ele>142.0160548343</ele>
        <time>2017-01-31T15:13:09Z</time>
      </trkpt>
      <trkpt lat="45.2322" lon="0.44385">
        <ele>143.01599639154</ele>
        <time>2017-01-31T15:13:16Z</time>
      </trkpt>
      <trkpt lat="45.23222" lon="0.44396">
        <ele>142.01594150423</ele>
        <time>2017-01-31T15:13:24Z</time>
      </trkpt>
      <trkpt lat="45.23223" lon="0.44408">
        <ele>144.01590450524</ele>
        <time>2017-01-31T15:13:33Z</time>
      </trkpt>
      <trkpt lat="45.23226" lon="0.44419">
        <ele>142.01584332294</ele>
        <time>2017-01-31T15:13:40Z</time>
      </trkpt>
      <trkpt lat="45.23229" lon="0.44429">
        <ele>142.01578967342</ele>
        <time>2017-01-31T15:13:47Z</time>
      </trkpt>
      <trkpt lat="45.23232" lon="0.4444">
        <ele>140.01572587084</ele>
        <time>2017-01-31T15:13:54Z</time>
      </trkpt>
      <trkpt lat="45.23231" lon="0.44452">
        <ele>139.01570261797</ele>
        <time>2017-01-31T15:14:48Z</time>
      </trkpt>
      <trkpt lat="45.23234" lon="0.44462">
        <ele>139.01565265194</ele>
        <time>2017-01-31T15:15:02Z</time>
      </trkpt>
      <trkpt lat="45.23234" lon="0.44475">
        <ele>141.01561408759</ele>
        <time>2017-01-31T15:15:09Z</time>
      </trkpt>
      <trkpt lat="45.23238" lon="0.44485">
        <ele>142.01554945852</ele>
        <time>2017-01-31T15:15:17Z</time>
      </trkpt>
      <trkpt lat="45.23242" lon="0.44496">
        <ele>144.01548740907</ele>
        <time>2017-01-31T15:15:25Z</time>
      </trkpt>
      <trkpt lat="45.23245" lon="0.44506">
        <ele>143.01543068481</ele>
        <time>2017-01-31T15:15:32Z</time>
      </trkpt>
      <trkpt lat="45.23248" lon="0.44517">
        <ele>141.01537286735</ele>
        <time>2017-01-31T15:15:42Z</time>
      </trkpt>
      <trkpt lat="45.23251" lon="0.44527">
        <ele>141.01531758829</ele>
        <time>2017-01-31T15:15:50Z</time>
      </trkpt>
      <trkpt lat="45.23253" lon="0.44537">
        <ele>141.01526679444</ele>
        <time>2017-01-31T15:15:57Z</time>
      </trkpt>
      <trkpt lat="45.23257" lon="0.44547">
        <ele>142.01520790122</ele>
        <time>2017-01-31T15:16:04Z</time>
      </trkpt>
      <trkpt lat="45.2326" lon="0.44558">
        <ele>142.01514746678</ele>
        <time>2017-01-31T15:16:12Z</time>
      </trkpt>
      <trkpt lat="45.23265" lon="0.44568">
        <ele>142.01507977197</ele>
        <time>2017-01-31T15:16:20Z</time>
      </trkpt>
      <trkpt lat="45.23271" lon="0.44576">
        <ele>144.0150035295</ele>
        <time>2017-01-31T15:16:28Z</time>
      </trkpt>
      <trkpt lat="45.23278" lon="0.44582">
        <ele>144.01492596678</ele>
        <time>2017-01-31T15:16:35Z</time>
      </trkpt>
      <trkpt lat="45.23285" lon="0.44591">
        <ele>146.01484764749</ele>
        <time>2017-01-31T15:16:44Z</time>
      </trkpt>
      <trkpt lat="45.23292" lon="0.44596">
        <ele>143.01476828379</ele>
        <time>2017-01-31T15:16:52Z</time>
      </trkpt>
      <trkpt lat="45.23299" lon="0.44603">
        <ele>141.01469004884</ele>
        <time>2017-01-31T15:16:59Z</time>
      </trkpt>
      <trkpt lat="45.23304" lon="0.44613">
        <ele>142.01462190984</ele>
        <time>2017-01-31T15:17:07Z</time>
      </trkpt>
      <trkpt lat="45.2331" lon="0.44622">
        <ele>139.01454181466</ele>
        <time>2017-01-31T15:17:27Z</time>
      </trkpt>
      <trkpt lat="45.23319" lon="0.44625">
        <ele>140.01445981807</ele>
        <time>2017-01-31T15:18:28Z</time>
      </trkpt>
      <trkpt lat="45.23323" lon="0.44636">
        <ele>141.01439515111</ele>
        <time>2017-01-31T15:18:39Z</time>
      </trkpt>
      <trkpt lat="45.2333" lon="0.44642">
        <ele>142.01431477741</ele>
        <time>2017-01-31T15:18:47Z</time>
      </trkpt>
      <trkpt lat="45.23336" lon="0.44651">
        <ele>138.01424583714</ele>
        <time>2017-01-31T15:18:55Z</time>
      </trkpt>
      <trkpt lat="45.23342" lon="0.44658">
        <ele>139.01416960519</ele>
        <time>2017-01-31T15:19:02Z</time>
      </trkpt>
      <trkpt lat="45.23349" lon="0.44666">
        <ele>136.01409000624</ele>
        <time>2017-01-31T15:19:11Z</time>
      </trkpt>
      <trkpt lat="45.23354" lon="0.44675">
        <ele>135.01402140679</ele>
        <time>2017-01-31T15:19:18Z</time>
      </trkpt>
      <trkpt lat="45.23361" lon="0.44682">
        <ele>137.01394616281</ele>
        <time>2017-01-31T15:19:25Z</time>
      </trkpt>
      <trkpt lat="45.23367" lon="0.4469">
        <ele>137.01387424519</ele>
        <time>2017-01-31T15:19:32Z</time>
      </trkpt>
      <trkpt lat="45.23374" lon="0.44698">
        <ele>135.0137960252</ele>
        <time>2017-01-31T15:19:40Z</time>
      </trkpt>
      <trkpt lat="45.23378" lon="0.44708">
        <ele>136.01373214511</ele>
        <time>2017-01-31T15:19:46Z</time>
      </trkpt>
      <trkpt lat="45.23382" lon="0.44718">
        <ele>136.01366980344</ele>
        <time>2017-01-31T15:19:53Z</time>
      </trkpt>
      <trkpt lat="45.23388" lon="0.44728">
        <ele>135.01360051958</ele>
        <time>2017-01-31T15:20:00Z</time>
      </trkpt>
      <trkpt lat="45.23393" lon="0.44736">
        <ele>134.01353359373</ele>
        <time>2017-01-31T15:20:07Z</time>
      </trkpt>
      <trkpt lat="45.23399" lon="0.44744">
        <ele>134.01346146504</ele>
        <time>2017-01-31T15:20:14Z</time>
      </trkpt>
      <trkpt lat="45.23405" lon="0.44751">
        <ele>133.01339152519</ele>
        <time>2017-01-31T15:20:21Z</time>
      </trkpt>
      <trkpt lat="45.23413" lon="0.44759">
        <ele>134.01331198859</ele>
        <time>2017-01-31T15:20:29Z</time>
      </trkpt>
      <trkpt lat="45.23419" lon="0.44766">
        <ele>133.01324276942</ele>
        <time>2017-01-31T15:20:35Z</time>
      </trkpt>
      <trkpt lat="45.23425" lon="0.44772">
        <ele>133.01317512665</ele>
        <time>2017-01-31T15:20:40Z</time>
      </trkpt>
      <trkpt lat="45.2343" lon="0.44781">
        <ele>136.01310557719</ele>
        <time>2017-01-31T15:20:49Z</time>
      </trkpt>
      <trkpt lat="45.23436" lon="0.44789">
        <ele>134.01304107223</ele>
        <time>2017-01-31T15:20:55Z</time>
      </trkpt>
      <trkpt lat="45.23442" lon="0.44798">
        <ele>135.01296932254</ele>
        <time>2017-01-31T15:21:02Z</time>
      </trkpt>
      <trkpt lat="45.23448" lon="0.44804">
        <ele>135.01290022515</ele>
        <time>2017-01-31T15:21:09Z</time>
      </trkpt>
      <trkpt lat="45.23456" lon="0.44811">
        <ele>133.01282099979</ele>
        <time>2017-01-31T15:21:17Z</time>
      </trkpt>
      <trkpt lat="45.23463" lon="0.44817">
        <ele>130.0127488304</ele>
        <time>2017-01-31T15:21:25Z</time>
      </trkpt>
      <trkpt lat="45.23471" lon="0.44823">
        <ele>127.01267076057</ele>
        <time>2017-01-31T15:21:34Z</time>
      </trkpt>
      <trkpt lat="45.23475" lon="0.4483">
        <ele>128.01261337701</ele>
        <time>2017-01-31T15:21:40Z</time>
      </trkpt>
      <trkpt lat="45.23482" lon="0.44837">
        <ele>126.012543776</ele>
        <time>2017-01-31T15:21:47Z</time>
      </trkpt>
      <trkpt lat="45.23488" lon="0.44844">
        <ele>124.01247101893</ele>
        <time>2017-01-31T15:21:52Z</time>
      </trkpt>
      <trkpt lat="45.23496" lon="0.44845">
        <ele>122.01240745348</ele>
        <time>2017-01-31T15:21:59Z</time>
      </trkpt>
      <trkpt lat="45.23502" lon="0.44852">
        <ele>124.01233650738</ele>
        <time>2017-01-31T15:22:07Z</time>
      </trkpt>
      <trkpt lat="45.23507" lon="0.44861">
        <ele>125.01227312387</ele>
        <time>2017-01-31T15:22:16Z</time>
      </trkpt>
      <trkpt lat="45.23515" lon="0.44867">
        <ele>127.0121968828</ele>
        <time>2017-01-31T15:22:23Z</time>
      </trkpt>
      <trkpt lat="45.2352" lon="0.44877">
        <ele>130.01213258591</ele>
        <time>2017-01-31T15:22:31Z</time>
      </trkpt>
      <trkpt lat="45.23527" lon="0.44882">
        <ele>133.01206617184</ele>
        <time>2017-01-31T15:22:38Z</time>
      </trkpt>
      <trkpt lat="45.23533" lon="0.44886">
        <ele>133.01200305387</ele>
        <time>2017-01-31T15:22:42Z</time>
      </trkpt>
      <trkpt lat="45.23541" lon="0.44892">
        <ele>133.01192710762</ele>
        <time>2017-01-31T15:22:47Z</time>
      </trkpt>
      <trkpt lat="45.23546" lon="0.44899">
        <ele>134.01186394339</ele>
        <time>2017-01-31T15:22:57Z</time>
      </trkpt>
      <trkpt lat="45.23554" lon="0.44903">
        <ele>130.01178963311</ele>
        <time>2017-01-31T15:23:08Z</time>
      </trkpt>
      <trkpt lat="45.23562" lon="0.44902">
        <ele>127.01172679126</ele>
        <time>2017-01-31T15:23:14Z</time>
      </trkpt>
      <trkpt lat="45.23568" lon="0.44896">
        <ele>131.01169576182</ele>
        <time>2017-01-31T15:23:22Z</time>
      </trkpt>
      <trkpt lat="45.23577" lon="0.44891">
        <ele>129.01163621793</ele>
        <time>2017-01-31T15:23:27Z</time>
      </trkpt>
      <trkpt lat="45.23586" lon="0.4489">
        <ele>128.01156452697</ele>
        <time>2017-01-31T15:23:33Z</time>
      </trkpt>
      <trkpt lat="45.23593" lon="0.44887">
        <ele>127.01150732879</ele>
        <time>2017-01-31T15:23:41Z</time>
      </trkpt>
      <trkpt lat="45.23601" lon="0.44883">
        <ele>128.0114548315</ele>
        <time>2017-01-31T15:23:47Z</time>
      </trkpt>
      <trkpt lat="45.23609" lon="0.44881">
        <ele>125.01139188842</ele>
        <time>2017-01-31T15:23:54Z</time>
      </trkpt>
      <trkpt lat="45.23617" lon="0.44878">
        <ele>126.01133206919</ele>
        <time>2017-01-31T15:24:02Z</time>
      </trkpt>
      <trkpt lat="45.23624" lon="0.44872">
        <ele>124.01128819814</ele>
        <time>2017-01-31T15:24:11Z</time>
      </trkpt>
      <trkpt lat="45.23632" lon="0.44867">
        <ele>128.01123074401</ele>
        <time>2017-01-31T15:24:18Z</time>
      </trkpt>
      <trkpt lat="45.2364" lon="0.44867">
        <ele>128.01116858925</ele>
        <time>2017-01-31T15:24:25Z</time>
      </trkpt>
      <trkpt lat="45.23648" lon="0.44867">
        <ele>127.01110139511</ele>
        <time>2017-01-31T15:24:33Z</time>
      </trkpt>
      <trkpt lat="45.23656" lon="0.44862">
        <ele>130.01104658638</ele>
        <time>2017-01-31T15:24:39Z</time>
      </trkpt>
      <trkpt lat="45.23665" lon="0.44859">
        <ele>131.01098493908</ele>
        <time>2017-01-31T15:24:46Z</time>
      </trkpt>
      <trkpt lat="45.23673" lon="0.44861">
        <ele>129.01090891776</ele>
        <time>2017-01-31T15:24:56Z</time>
      </trkpt>
      <trkpt lat="45.23681" lon="0.4486">
        <ele>124.01084728231</ele>
        <time>2017-01-31T15:25:05Z</time>
      </trkpt>
      <trkpt lat="45.23689" lon="0.44862">
        <ele>124.01077489181</ele>
        <time>2017-01-31T15:25:12Z</time>
      </trkpt>
      <trkpt lat="45.23697" lon="0.44856">
        <ele>124.0107241152</ele>
        <time>2017-01-31T15:25:20Z</time>
      </trkpt>
      <trkpt lat="45.23705" lon="0.44859">
        <ele>121.01065600694</ele>
        <time>2017-01-31T15:25:31Z</time>
      </trkpt>
      <trkpt lat="45.23713" lon="0.44861">
        <ele>120.01058479177</ele>
        <time>2017-01-31T15:25:42Z</time>
      </trkpt>
      <trkpt lat="45.2372" lon="0.44856">
        <ele>122.01053911107</ele>
        <time>2017-01-31T15:25:51Z</time>
      </trkpt>
      <trkpt lat="45.23727" lon="0.44852">
        <ele>122.01048448713</ele>
        <time>2017-01-31T15:26:01Z</time>
      </trkpt>
      <trkpt lat="45.23736" lon="0.44847">
        <ele>122.01042448809</ele>
        <time>2017-01-31T15:26:11Z</time>
      </trkpt>
      <trkpt lat="45.23743" lon="0.4485">
        <ele>119.01035849862</ele>
        <time>2017-01-31T15:26:21Z</time>
      </trkpt>
      <trkpt lat="45.23751" lon="0.44845">
        <ele>118.01030126529</ele>
        <time>2017-01-31T15:26:30Z</time>
      </trkpt>
      <trkpt lat="45.23757" lon="0.44837">
        <ele>121.010267355</ele>
        <time>2017-01-31T15:26:44Z</time>
      </trkpt>
      <trkpt lat="45.23765" lon="0.4483">
        <ele>122.01021834375</ele>
        <time>2017-01-31T15:26:49Z</time>
      </trkpt>
      <trkpt lat="45.23772" lon="0.44825">
        <ele>123.01016805837</ele>
        <time>2017-01-31T15:26:56Z</time>
      </trkpt>
      <trkpt lat="45.23779" lon="0.44817">
        <ele>123.01012384979</ele>
        <time>2017-01-31T15:27:03Z</time>
      </trkpt>
      <trkpt lat="45.23787" lon="0.44813">
        <ele>126.01006636005</ele>
        <time>2017-01-31T15:27:12Z</time>
      </trkpt>
      <trkpt lat="45.23793" lon="0.44806">
        <ele>124.0100320427</ele>
        <time>2017-01-31T15:27:21Z</time>
      </trkpt>
      <trkpt lat="45.23802" lon="0.44805">
        <ele>121.00996156013</ele>
        <time>2017-01-31T15:27:27Z</time>
      </trkpt>
      <trkpt lat="45.23806" lon="0.44794">
        <ele>125.00994984779</ele>
        <time>2017-01-31T15:27:35Z</time>
      </trkpt>
      <trkpt lat="45.2381" lon="0.44783">
        <ele>125.00993129177</ele>
        <time>2017-01-31T15:27:44Z</time>
      </trkpt>
      <trkpt lat="45.23817" lon="0.44775">
        <ele>121.00988560658</ele>
        <time>2017-01-31T15:27:51Z</time>
      </trkpt>
      <trkpt lat="45.23825" lon="0.44771">
        <ele>117.00983303819</ele>
        <time>2017-01-31T15:28:01Z</time>
      </trkpt>
      <trkpt lat="45.23832" lon="0.44763">
        <ele>117.0097889295</ele>
        <time>2017-01-31T15:28:07Z</time>
      </trkpt>
      <trkpt lat="45.23834" lon="0.44753">
        <ele>109.00978535461</ele>
        <time>2017-01-31T15:28:16Z</time>
      </trkpt>
      <trkpt lat="45.2384" lon="0.44745">
        <ele>110.00975392787</ele>
        <time>2017-01-31T15:28:21Z</time>
      </trkpt>
      <trkpt lat="45.23845" lon="0.44737">
        <ele>107.00972526179</ele>
        <time>2017-01-31T15:28:28Z</time>
      </trkpt>
      <trkpt lat="45.23848" lon="0.44726">
        <ele>106.00971881051</ele>
        <time>2017-01-31T15:28:37Z</time>
      </trkpt>
      <trkpt lat="45.23854" lon="0.44718">
        <ele>104.00968562307</ele>
        <time>2017-01-31T15:28:44Z</time>
      </trkpt>
      <trkpt lat="45.23857" lon="0.44706">
        <ele>103.00968470724</ele>
        <time>2017-01-31T15:28:53Z</time>
      </trkpt>
      <trkpt lat="45.23861" lon="0.44695">
        <ele>104.00967014147</ele>
        <time>2017-01-31T15:29:01Z</time>
      </trkpt>
      <trkpt lat="45.23867" lon="0.44688">
        <ele>103.0096291274</ele>
        <time>2017-01-31T15:29:08Z</time>
      </trkpt>
      <trkpt lat="45.2387" lon="0.44676">
        <ele>105.00962148622</ele>
        <time>2017-01-31T15:29:21Z</time>
      </trkpt>
      <trkpt lat="45.23875" lon="0.44667">
        <ele>108.00959813915</ele>
        <time>2017-01-31T15:29:29Z</time>
      </trkpt>
      <trkpt lat="45.23882" lon="0.44659">
        <ele>113.00955517143</ele>
        <time>2017-01-31T15:29:43Z</time>
      </trkpt>
      <trkpt lat="45.23887" lon="0.4465">
        <ele>116.0095230271</ele>
        <time>2017-01-31T15:30:22Z</time>
      </trkpt>
      <trkpt lat="45.23895" lon="0.44643">
        <ele>118.00947470146</ele>
        <time>2017-01-31T15:30:31Z</time>
      </trkpt>
      <trkpt lat="45.23902" lon="0.44638">
        <ele>119.00941606561</ele>
        <time>2017-01-31T15:30:46Z</time>
      </trkpt>
      <trkpt lat="45.23911" lon="0.44634">
        <ele>121.00935352549</ele>
        <time>2017-01-31T15:30:58Z</time>
      </trkpt>
      <trkpt lat="45.23919" lon="0.44631">
        <ele>119.00928600924</ele>
        <time>2017-01-31T15:31:21Z</time>
      </trkpt>
      <trkpt lat="45.23927" lon="0.44626">
        <ele>118.00923104232</ele>
        <time>2017-01-31T15:31:27Z</time>
      </trkpt>
      <trkpt lat="45.23933" lon="0.44618">
        <ele>119.00918982747</ele>
        <time>2017-01-31T15:31:35Z</time>
      </trkpt>
      <trkpt lat="45.23939" lon="0.4461">
        <ele>120.00915155369</ele>
        <time>2017-01-31T15:31:45Z</time>
      </trkpt>
      <trkpt lat="45.23945" lon="0.44601">
        <ele>120.0091126008</ele>
        <time>2017-01-31T15:31:56Z</time>
      </trkpt>
      <trkpt lat="45.2395" lon="0.44591">
        <ele>123.00908720629</ele>
        <time>2017-01-31T15:32:08Z</time>
      </trkpt>
      <trkpt lat="45.23954" lon="0.4458">
        <ele>125.00906959343</ele>
        <time>2017-01-31T15:32:18Z</time>
      </trkpt>
      <trkpt lat="45.23958" lon="0.4457">
        <ele>123.0090525459</ele>
        <time>2017-01-31T15:32:27Z</time>
      </trkpt>
      <trkpt lat="45.23963" lon="0.44561">
        <ele>122.00902551299</ele>
        <time>2017-01-31T15:32:34Z</time>
      </trkpt>
      <trkpt lat="45.23968" lon="0.44551">
        <ele>124.00900088157</ele>
        <time>2017-01-31T15:32:45Z</time>
      </trkpt>
      <trkpt lat="45.23976" lon="0.44548">
        <ele>121.00893110095</ele>
        <time>2017-01-31T15:33:00Z</time>
      </trkpt>
      <trkpt lat="45.23985" lon="0.4455">
        <ele>119.00885037437</ele>
        <time>2017-01-31T15:33:06Z</time>
      </trkpt>
      <trkpt lat="45.23993" lon="0.44551">
        <ele>118.00877735536</ele>
        <time>2017-01-31T15:33:13Z</time>
      </trkpt>
      <trkpt lat="45.24001" lon="0.44557">
        <ele>120.00870434029</ele>
        <time>2017-01-31T15:33:19Z</time>
      </trkpt>
      <trkpt lat="45.24009" lon="0.44562">
        <ele>119.00862695448</ele>
        <time>2017-01-31T15:33:25Z</time>
      </trkpt>
      <trkpt lat="45.24015" lon="0.44569">
        <ele>119.00855900686</ele>
        <time>2017-01-31T15:33:32Z</time>
      </trkpt>
      <trkpt lat="45.24023" lon="0.44573">
        <ele>121.008486337</ele>
        <time>2017-01-31T15:33:37Z</time>
      </trkpt>
      <trkpt lat="45.2403" lon="0.44576">
        <ele>120.00841842108</ele>
        <time>2017-01-31T15:33:42Z</time>
      </trkpt>
      <trkpt lat="45.24038" lon="0.4458">
        <ele>118.00834092149</ele>
        <time>2017-01-31T15:33:48Z</time>
      </trkpt>
      <trkpt lat="45.24045" lon="0.44586">
        <ele>118.00827517017</ele>
        <time>2017-01-31T15:33:54Z</time>
      </trkpt>
      <trkpt lat="45.24053" lon="0.4459">
        <ele>117.00820091424</ele>
        <time>2017-01-31T15:34:00Z</time>
      </trkpt>
      <trkpt lat="45.2406" lon="0.44594">
        <ele>116.00813036496</ele>
        <time>2017-01-31T15:34:07Z</time>
      </trkpt>
      <trkpt lat="45.24067" lon="0.446">
        <ele>118.00806513636</ele>
        <time>2017-01-31T15:34:11Z</time>
      </trkpt>
      <trkpt lat="45.24075" lon="0.44603">
        <ele>118.00798770458</ele>
        <time>2017-01-31T15:34:17Z</time>
      </trkpt>
      <trkpt lat="45.24083" lon="0.44607">
        <ele>116.00791150236</ele>
        <time>2017-01-31T15:34:24Z</time>
      </trkpt>
      <trkpt lat="45.24091" lon="0.44611">
        <ele>112.00783594719</ele>
        <time>2017-01-31T15:34:30Z</time>
      </trkpt>
      <trkpt lat="45.24098" lon="0.44618">
        <ele>112.00776750752</ele>
        <time>2017-01-31T15:34:36Z</time>
      </trkpt>
      <trkpt lat="45.24104" lon="0.44627">
        <ele>114.00770135133</ele>
        <time>2017-01-31T15:34:42Z</time>
      </trkpt>
      <trkpt lat="45.24111" lon="0.44633">
        <ele>113.00763215884</ele>
        <time>2017-01-31T15:34:49Z</time>
      </trkpt>
      <trkpt lat="45.24117" lon="0.4464">
        <ele>114.00757095241</ele>
        <time>2017-01-31T15:34:55Z</time>
      </trkpt>
      <trkpt lat="45.24122" lon="0.44649">
        <ele>112.00751574169</ele>
        <time>2017-01-31T15:35:00Z</time>
      </trkpt>
      <trkpt lat="45.24129" lon="0.44655">
        <ele>115.00744673065</ele>
        <time>2017-01-31T15:35:07Z</time>
      </trkpt>
      <trkpt lat="45.24136" lon="0.44662">
        <ele>117.00737969845</ele>
        <time>2017-01-31T15:35:13Z</time>
      </trkpt>
      <trkpt lat="45.24141" lon="0.4467">
        <ele>117.00732332109</ele>
        <time>2017-01-31T15:35:20Z</time>
      </trkpt>
      <trkpt lat="45.24147" lon="0.44676">
        <ele>118.00726409408</ele>
        <time>2017-01-31T15:35:25Z</time>
      </trkpt>
      <trkpt lat="45.24151" lon="0.44685">
        <ele>118.00721594644</ele>
        <time>2017-01-31T15:35:29Z</time>
      </trkpt>
      <trkpt lat="45.24156" lon="0.44694">
        <ele>117.00716406091</ele>
        <time>2017-01-31T15:35:34Z</time>
      </trkpt>
      <trkpt lat="45.24161" lon="0.44701">
        <ele>119.00711038925</ele>
        <time>2017-01-31T15:35:40Z</time>
      </trkpt>
      <trkpt lat="45.24167" lon="0.44711">
        <ele>119.00705135005</ele>
        <time>2017-01-31T15:35:46Z</time>
      </trkpt>
      <trkpt lat="45.24171" lon="0.44721">
        <ele>118.00700326952</ele>
        <time>2017-01-31T15:35:54Z</time>
      </trkpt>
      <trkpt lat="45.24176" lon="0.44729">
        <ele>116.00694745226</ele>
        <time>2017-01-31T15:36:01Z</time>
      </trkpt>
      <trkpt lat="45.24182" lon="0.44738">
        <ele>115.00689033749</ele>
        <time>2017-01-31T15:36:08Z</time>
      </trkpt>
      <trkpt lat="45.24189" lon="0.44745">
        <ele>114.00682318722</ele>
        <time>2017-01-31T15:36:16Z</time>
      </trkpt>
      <trkpt lat="45.24196" lon="0.44751">
        <ele>112.00675090223</ele>
        <time>2017-01-31T15:36:24Z</time>
      </trkpt>
      <trkpt lat="45.24201" lon="0.44741">
        <ele>110.00672832153</ele>
        <time>2017-01-31T15:36:49Z</time>
      </trkpt>
      <trkpt lat="45.24203" lon="0.44728">
        <ele>109.00672350453</ele>
        <time>2017-01-31T15:36:58Z</time>
      </trkpt>
      <trkpt lat="45.24205" lon="0.44718">
        <ele>110.00671896843</ele>
        <time>2017-01-31T15:37:04Z</time>
      </trkpt>
      <trkpt lat="45.24205" lon="0.44706">
        <ele>109.00673225635</ele>
        <time>2017-01-31T15:37:11Z</time>
      </trkpt>
      <trkpt lat="45.24206" lon="0.44694">
        <ele>108.00674522711</ele>
        <time>2017-01-31T15:37:18Z</time>
      </trkpt>
      <trkpt lat="45.24205" lon="0.44682">
        <ele>108.00676078705</ele>
        <time>2017-01-31T15:37:25Z</time>
      </trkpt>
      <trkpt lat="45.24204" lon="0.4467">
        <ele>108.00679259797</ele>
        <time>2017-01-31T15:37:33Z</time>
      </trkpt>
      <trkpt lat="45.24203" lon="0.44657">
        <ele>105.00681104004</ele>
        <time>2017-01-31T15:37:50Z</time>
      </trkpt>
      <trkpt lat="45.24203" lon="0.44646">
        <ele>107.00683085772</ele>
        <time>2017-01-31T15:37:58Z</time>
      </trkpt>
      <trkpt lat="45.24203" lon="0.44634">
        <ele>105.0068434281</ele>
        <time>2017-01-31T15:38:05Z</time>
      </trkpt>
      <trkpt lat="45.24203" lon="0.44622">
        <ele>106.00686176009</ele>
        <time>2017-01-31T15:38:16Z</time>
      </trkpt>
      <trkpt lat="45.24201" lon="0.44609">
        <ele>106.00689245254</ele>
        <time>2017-01-31T15:38:24Z</time>
      </trkpt>
      <trkpt lat="45.24201" lon="0.44597">
        <ele>107.00690666406</ele>
        <time>2017-01-31T15:38:31Z</time>
      </trkpt>
      <trkpt lat="45.24201" lon="0.44586">
        <ele>108.00691847327</ele>
        <time>2017-01-31T15:38:38Z</time>
      </trkpt>
      <trkpt lat="45.24202" lon="0.44575">
        <ele>107.00692344475</ele>
        <time>2017-01-31T15:38:46Z</time>
      </trkpt>
      <trkpt lat="45.24203" lon="0.44563">
        <ele>109.0069332298</ele>
        <time>2017-01-31T15:38:55Z</time>
      </trkpt>
      <trkpt lat="45.24206" lon="0.44551">
        <ele>106.00692661572</ele>
        <time>2017-01-31T15:39:03Z</time>
      </trkpt>
      <trkpt lat="45.24207" lon="0.44539">
        <ele>106.0069307104</ele>
        <time>2017-01-31T15:39:15Z</time>
      </trkpt>
      <trkpt lat="45.24211" lon="0.44527">
        <ele>108.00691309983</ele>
        <time>2017-01-31T15:39:24Z</time>
      </trkpt>
      <trkpt lat="45.24217" lon="0.44519">
        <ele>108.00687122359</ele>
        <time>2017-01-31T15:39:31Z</time>
      </trkpt>
      <trkpt lat="45.24223" lon="0.44513">
        <ele>109.00682110992</ele>
        <time>2017-01-31T15:39:37Z</time>
      </trkpt>
      <trkpt lat="45.24231" lon="0.44507">
        <ele>111.00676235257</ele>
        <time>2017-01-31T15:39:44Z</time>
      </trkpt>
      <trkpt lat="45.24237" lon="0.445">
        <ele>110.00671243624</ele>
        <time>2017-01-31T15:39:51Z</time>
      </trkpt>
      <trkpt lat="45.24244" lon="0.44491">
        <ele>107.00666702347</ele>
        <time>2017-01-31T15:39:59Z</time>
      </trkpt>
      <trkpt lat="45.24251" lon="0.44485">
        <ele>107.00660677157</ele>
        <time>2017-01-31T15:40:07Z</time>
      </trkpt>
      <trkpt lat="45.24254" lon="0.44473">
        <ele>106.00659608854</ele>
        <time>2017-01-31T15:40:30Z</time>
      </trkpt>
      <trkpt lat="45.24258" lon="0.44463">
        <ele>106.00657209131</ele>
        <time>2017-01-31T15:40:41Z</time>
      </trkpt>
      <trkpt lat="45.24262" lon="0.44453">
        <ele>107.00655532537</ele>
        <time>2017-01-31T15:40:48Z</time>
      </trkpt>
      <trkpt lat="45.24266" lon="0.44442">
        <ele>110.00652482513</ele>
        <time>2017-01-31T15:40:59Z</time>
      </trkpt>
      <trkpt lat="45.24268" lon="0.44431">
        <ele>108.00652279599</ele>
        <time>2017-01-31T15:41:09Z</time>
      </trkpt>
      <trkpt lat="45.24271" lon="0.44419">
        <ele>110.00651123814</ele>
        <time>2017-01-31T15:41:18Z</time>
      </trkpt>
      <trkpt lat="45.24274" lon="0.44407">
        <ele>110.00650047096</ele>
        <time>2017-01-31T15:41:31Z</time>
      </trkpt>
      <trkpt lat="45.24275" lon="0.44394">
        <ele>108.00650171972</ele>
        <time>2017-01-31T15:41:43Z</time>
      </trkpt>
      <trkpt lat="45.24268" lon="0.44387">
        <ele>108.00657210167</ele>
        <time>2017-01-31T15:41:52Z</time>
      </trkpt>
      <trkpt lat="45.2426" lon="0.44384">
        <ele>110.0066500432</ele>
        <time>2017-01-31T15:42:07Z</time>
      </trkpt>
      <trkpt lat="45.24254" lon="0.44374">
        <ele>111.00671164719</ele>
        <time>2017-01-31T15:42:15Z</time>
      </trkpt>
      <trkpt lat="45.24253" lon="0.44363">
        <ele>113.00674113845</ele>
        <time>2017-01-31T15:42:23Z</time>
      </trkpt>
      <trkpt lat="45.24251" lon="0.44351">
        <ele>114.00677423383</ele>
        <time>2017-01-31T15:42:31Z</time>
      </trkpt>
      <trkpt lat="45.24247" lon="0.4434">
        <ele>113.00681707196</ele>
        <time>2017-01-31T15:42:39Z</time>
      </trkpt>
      <trkpt lat="45.24248" lon="0.44328">
        <ele>114.00682698915</ele>
        <time>2017-01-31T15:42:47Z</time>
      </trkpt>
      <trkpt lat="45.24248" lon="0.44317">
        <ele>115.00683873396</ele>
        <time>2017-01-31T15:42:55Z</time>
      </trkpt>
      <trkpt lat="45.24246" lon="0.44304">
        <ele>113.00686928288</ele>
        <time>2017-01-31T15:43:08Z</time>
      </trkpt>
      <trkpt lat="45.24244" lon="0.44292">
        <ele>119.00690462046</ele>
        <time>2017-01-31T15:43:23Z</time>
      </trkpt>
      <trkpt lat="45.2424" lon="0.44283">
        <ele>113.00695617404</ele>
        <time>2017-01-31T15:43:29Z</time>
      </trkpt>
      <trkpt lat="45.24235" lon="0.44273">
        <ele>113.00700615144</ele>
        <time>2017-01-31T15:43:37Z</time>
      </trkpt>
      <trkpt lat="45.24233" lon="0.44262">
        <ele>113.00703777775</ele>
        <time>2017-01-31T15:43:44Z</time>
      </trkpt>
      <trkpt lat="45.24232" lon="0.44252">
        <ele>113.00706438312</ele>
        <time>2017-01-31T15:43:51Z</time>
      </trkpt>
      <trkpt lat="45.2424" lon="0.44251">
        <ele>114.00698974341</ele>
        <time>2017-01-31T15:43:59Z</time>
      </trkpt>
      <trkpt lat="45.24245" lon="0.44243">
        <ele>114.00695696302</ele>
        <time>2017-01-31T15:44:06Z</time>
      </trkpt>
      <trkpt lat="45.24251" lon="0.44236">
        <ele>117.00690487255</ele>
        <time>2017-01-31T15:44:14Z</time>
      </trkpt>
      <trkpt lat="45.24258" lon="0.44234">
        <ele>116.00684615382</ele>
        <time>2017-01-31T15:44:21Z</time>
      </trkpt>
      <trkpt lat="45.24266" lon="0.44236">
        <ele>118.00676673152</ele>
        <time>2017-01-31T15:44:28Z</time>
      </trkpt>
      <trkpt lat="45.24274" lon="0.44237">
        <ele>116.00669326947</ele>
        <time>2017-01-31T15:44:33Z</time>
      </trkpt>
      <trkpt lat="45.24282" lon="0.44232">
        <ele>118.00662343869</ele>
        <time>2017-01-31T15:44:40Z</time>
      </trkpt>
      <trkpt lat="45.2429" lon="0.44234">
        <ele>116.00654955221</ele>
        <time>2017-01-31T15:44:45Z</time>
      </trkpt>
      <trkpt lat="45.24295" lon="0.44233">
        <ele>114.00650481197</ele>
        <time>2017-01-31T15:44:55Z</time>
      </trkpt>
      <trkpt lat="45.24303" lon="0.44229">
        <ele>111.00643895384</ele>
        <time>2017-01-31T15:45:00Z</time>
      </trkpt>
      <trkpt lat="45.2431" lon="0.44234">
        <ele>109.00636559966</ele>
        <time>2017-01-31T15:45:08Z</time>
      </trkpt>
      <trkpt lat="45.24313" lon="0.44244">
        <ele>112.006326346</ele>
        <time>2017-01-31T15:45:13Z</time>
      </trkpt>
      <trkpt lat="45.24317" lon="0.44252">
        <ele>115.00627830571</ele>
        <time>2017-01-31T15:45:20Z</time>
      </trkpt>
      <trkpt lat="45.24322" lon="0.44262">
        <ele>117.00622453477</ele>
        <time>2017-01-31T15:45:28Z</time>
      </trkpt>
      <trkpt lat="45.24327" lon="0.44272">
        <ele>119.00617081933</ele>
        <time>2017-01-31T15:45:36Z</time>
      </trkpt>
      <trkpt lat="45.24329" lon="0.44284">
        <ele>115.00613627153</ele>
        <time>2017-01-31T15:45:45Z</time>
      </trkpt>
      <trkpt lat="45.24334" lon="0.44294">
        <ele>111.00608298471</ele>
        <time>2017-01-31T15:45:58Z</time>
      </trkpt>
      <trkpt lat="45.24334" lon="0.44298">
        <ele>111.00607803864</ele>
        <time>2017-01-31T15:46:06Z</time>
      </trkpt>
      <trkpt lat="45.24334" lon="0.44298">
        <ele>111.00607803864</ele>
        <time>2017-01-31T15:46:06Z</time>
      </trkpt>
    </trkseg>
  </trk>
</gpx>